PORTS® Data Listing: 9414750 Alameda, CA

CO-OPS RAW PORTS DATA

************************      PRELIMINARY DATA      ************************** 

     THIS RAW DATA HAS NOT BEEN SUBJECT TO THE NATIONAL OCEAN SERVICE'S        
     QUALITY CONTROL OR QUALITY ASSURANCE PROCEDURES AND DOES NOT MEET         
     THE CRITERIA AND STANDARDS OF OFFICIAL NATIONAL OCEAN SERVICE             
     DATA.  IT IS RELEASED FOR LIMITED PUBLIC USE AS PRELIMINARY DATA TO       
     BE USED ONLY WITH APPROPRIATE CAUTION.                                    

************************      PRELIMINARY DATA      ************************** 


       CD   -   Calendar date
       T    -   Time
       TZ   -   Timezone
       PW   -   Predicted water level (feet above MLLW)
       OW   -   Observed water level (feet above MLLW)
       WS   -   Wind speed (knots)
       WD   -   Wind direction (degrees true)
       WG   -   Wind gust (knots)
       AT   -   Air temperature (degrees farenheit)
       WT   -   Water temperature (degrees farenheit)
       AP   -   Air pressure (millibars)
       SA   -   Salinty (PSU - Practical Salinity Units)
       SG   -   Specific gravity
       RH   -   Relative humidity
       AG   -   Air gap (feet)
       VI   -   Visibility (nautical miles)

       ** NOTE **
       A variable that has its data fields filled with "9"s, indicates that
       data was not collected for that sample period.
       **********


STATION NAME: Alameda (9414750)
****************************************************************************************************
    CD       T    TZ    PW     OW    WS   WD   WG    AT    WT    AP    SA    SG     RH    AG   VI
****************************************************************************************************
2019/10/15 22:18 PDT    2.05   2.08    6  258    8  57.0  62.6 1017.6 -9.9 -9.999 -99.9 -99.99 -9.99
2019/10/15 22:24 PDT    2.16   2.17    4  264    7  56.8  62.6 1017.5 -9.9 -9.999 -99.9 -99.99 -9.99
2019/10/15 22:30 PDT    2.28   2.29    3  274    5  56.7  62.4 1017.6 -9.9 -9.999 -99.9 -99.99 -9.99
2019/10/15 22:36 PDT    2.40   2.43    4  272    5  56.5  62.4 1017.6 -9.9 -9.999 -99.9 -99.99 -9.99
2019/10/15 22:42 PDT    2.51   2.56    4  267    6  56.3  62.4 1017.6 -9.9 -9.999 -99.9 -99.99 -9.99
2019/10/15 22:48 PDT    2.63   2.70    3  278    4  56.1  62.4 1017.6 -9.9 -9.999 -99.9 -99.99 -9.99
2019/10/15 22:54 PDT    2.75   2.78    3  268    3  56.3  62.4 1017.6 -9.9 -9.999 -99.9 -99.99 -9.99
2019/10/15 23:00 PDT    2.87   2.88    2  252    4  56.5  62.4 1017.6 -9.9 -9.999 -99.9 -99.99 -9.99
2019/10/15 23:06 PDT    2.99   2.98    2  259    3  56.5  62.4 1017.6 -9.9 -9.999 -99.9 -99.99 -9.99
2019/10/15 23:12 PDT    3.10   3.11    1  267    2  56.5  62.4 1017.6 -9.9 -9.999 -99.9 -99.99 -9.99
2019/10/15 23:18 PDT    3.22   3.23    2  246    3  56.5  62.4 1017.6 -9.9 -9.999 -99.9 -99.99 -9.99
2019/10/15 23:24 PDT    3.34   3.35    2  223    2  56.7  62.4 1017.6 -9.9 -9.999 -99.9 -99.99 -9.99
2019/10/15 23:30 PDT    3.45   3.47    2  218    3  56.5  62.4 1017.7 -9.9 -9.999 -99.9 -99.99 -9.99
2019/10/15 23:36 PDT    3.56   3.57    3  240    3  56.7  62.4 1017.7 -9.9 -9.999 -99.9 -99.99 -9.99
2019/10/15 23:42 PDT    3.67   3.68    1  257    3  56.3  62.4 1017.7 -9.9 -9.999 -99.9 -99.99 -9.99
2019/10/15 23:48 PDT    3.78   3.80    1  244    2  56.5  62.4 1017.6 -9.9 -9.999 -99.9 -99.99 -9.99
2019/10/15 23:54 PDT    3.89   3.90    1  199    2  56.7  62.4 1017.6 -9.9 -9.999 -99.9 -99.99 -9.99
2019/10/16 00:00 PDT    3.99   4.01    2  249    3  56.7  62.4 1017.7 -9.9 -9.999 -99.9 -99.99 -9.99
2019/10/16 00:06 PDT    4.10   4.09    3  255    4  56.7  62.4 1017.6 -9.9 -9.999 -99.9 -99.99 -9.99
2019/10/16 00:12 PDT    4.20   4.21    2  284    4  56.3  62.4 1017.6 -9.9 -9.999 -99.9 -99.99 -9.99
2019/10/16 00:18 PDT    4.29   4.32    2  247    3  56.5  62.4 1017.6 -9.9 -9.999 -99.9 -99.99 -9.99
2019/10/16 00:24 PDT    4.39   4.42    4  256    5  56.1  62.2 1017.6 -9.9 -9.999 -99.9 -99.99 -9.99
2019/10/16 00:30 PDT    4.48   4.50    4  260    5  56.3  62.2 1017.6 -9.9 -9.999 -99.9 -99.99 -9.99
2019/10/16 00:36 PDT    4.56   4.56    4  278    5  56.1  62.2 1017.6 -9.9 -9.999 -99.9 -99.99 -9.99
2019/10/16 00:42 PDT    4.65   4.64    6  277    7  56.1  62.2 1017.6 -9.9 -9.999 -99.9 -99.99 -9.99
2019/10/16 00:48 PDT    4.73   4.74    5  269    7  56.1  62.2 1017.6 -9.9 -9.999 -99.9 -99.99 -9.99
2019/10/16 00:54 PDT    4.80   4.82    4  270    6  55.8  62.2 1017.6 -9.9 -9.999 -99.9 -99.99 -9.99
2019/10/16 01:00 PDT    4.87   4.89    4  267    6  55.8  62.2 1017.5 -9.9 -9.999 -99.9 -99.99 -9.99
2019/10/16 01:06 PDT    4.94   4.96    4  285    4  55.4  62.2 1017.5 -9.9 -9.999 -99.9 -99.99 -9.99
2019/10/16 01:12 PDT    5.01   5.05    4  284    5  55.6  62.2 1017.4 -9.9 -9.999 -99.9 -99.99 -9.99
2019/10/16 01:18 PDT    5.07   5.10    4  284    4  55.6  62.2 1017.4 -9.9 -9.999 -99.9 -99.99 -9.99
2019/10/16 01:24 PDT    5.12   5.13    3  284    4  55.6  62.2 1017.4 -9.9 -9.999 -99.9 -99.99 -9.99
2019/10/16 01:30 PDT    5.17   5.19    3  285    4  55.8  62.2 1017.4 -9.9 -9.999 -99.9 -99.99 -9.99
2019/10/16 01:36 PDT    5.22   5.26    4  279    5  55.9  62.2 1017.5 -9.9 -9.999 -99.9 -99.99 -9.99
2019/10/16 01:42 PDT    5.26   5.32    4  280    5  55.9  62.2 1017.6 -9.9 -9.999 -99.9 -99.99 -9.99
2019/10/16 01:48 PDT    5.30   5.37    4  267    6  55.9  62.1 1017.6 -9.9 -9.999 -99.9 -99.99 -9.99
2019/10/16 01:54 PDT    5.33   5.42    4  268    5  55.8  62.1 1017.6 -9.9 -9.999 -99.9 -99.99 -9.99
2019/10/16 02:00 PDT    5.36   5.45    4  261    6  55.9  62.1 1017.7 -9.9 -9.999 -99.9 -99.99 -9.99
2019/10/16 02:06 PDT    5.38   5.45    3  268    5  55.8  62.1 1017.7 -9.9 -9.999 -99.9 -99.99 -9.99
2019/10/16 02:12 PDT    5.39   5.46    3  251    4  55.8  62.1 1017.7 -9.9 -9.999 -99.9 -99.99 -9.99
2019/10/16 02:18 PDT    5.40   5.48    4  263    6  55.8  62.1 1017.8 -9.9 -9.999 -99.9 -99.99 -9.99
2019/10/16 02:24 PDT    5.41   5.51    5  260    7  55.8  62.1 1017.8 -9.9 -9.999 -99.9 -99.99 -9.99
2019/10/16 02:30 PDT    5.41   5.52    5  260    7  55.8  62.1 1017.7 -9.9 -9.999 -99.9 -99.99 -9.99
2019/10/16 02:36 PDT    5.40   5.51    6  256    7  55.6  62.1 1017.7 -9.9 -9.999 -99.9 -99.99 -9.99
2019/10/16 02:42 PDT    5.39   5.48    6  256    9  55.4  62.1 1017.6 -9.9 -9.999 -99.9 -99.99 -9.99
2019/10/16 02:48 PDT    5.37   5.43    5  265    8  55.6  62.1 1017.6 -9.9 -9.999 -99.9 -99.99 -9.99
2019/10/16 02:54 PDT    5.35   5.38    6  251    7  55.0  62.1 1017.6 -9.9 -9.999 -99.9 -99.99 -9.99
2019/10/16 03:00 PDT    5.32   5.33    6  253    7  55.4  62.1 1017.5 -9.9 -9.999 -99.9 -99.99 -9.99
2019/10/16 03:06 PDT    5.28   5.30    6  254    8  55.2  62.1 1017.5 -9.9 -9.999 -99.9 -99.99 -9.99
2019/10/16 03:12 PDT    5.24   5.30    6  250    7  55.2  62.1 1017.3 -9.9 -9.999 -99.9 -99.99 -9.99
2019/10/16 03:18 PDT    5.20   5.25    6  250    7  55.2  62.1 1017.2 -9.9 -9.999 -99.9 -99.99 -9.99
2019/10/16 03:24 PDT    5.14   5.17    6  252    7  55.0  62.1 1017.1 -9.9 -9.999 -99.9 -99.99 -9.99
2019/10/16 03:30 PDT    5.09   5.07    6  248    7  54.9  62.1 1017.1 -9.9 -9.999 -99.9 -99.99 -9.99
2019/10/16 03:36 PDT    5.03   5.00    4  260    6  55.0  62.1 1017.0 -9.9 -9.999 -99.9 -99.99 -9.99
2019/10/16 03:42 PDT    4.96   4.94    3  286    5  54.9  62.1 1016.9 -9.9 -9.999 -99.9 -99.99 -9.99
2019/10/16 03:48 PDT    4.89   4.85    3  287    3  55.0  62.1 1016.8 -9.9 -9.999 -99.9 -99.99 -9.99
2019/10/16 03:54 PDT    4.81   4.80    2  299    3  55.0  62.1 1016.9 -9.9 -9.999 -99.9 -99.99 -9.99
2019/10/16 04:00 PDT    4.73   4.75    2  321    3  55.0  62.1 1016.7 -9.9 -9.999 -99.9 -99.99 -9.99
2019/10/16 04:06 PDT    4.65   4.64    1  358    3  55.0  62.1 1016.7 -9.9 -9.999 -99.9 -99.99 -9.99
2019/10/16 04:12 PDT    4.56   4.54    1   31    2  54.9  62.1 1016.7 -9.9 -9.999 -99.9 -99.99 -9.99
2019/10/16 04:18 PDT    4.47   4.44    3    1    4  54.1  62.1 1016.6 -9.9 -9.999 -99.9 -99.99 -9.99
2019/10/16 04:24 PDT    4.38   4.36    2  333    4  54.1  62.1 1016.7 -9.9 -9.999 -99.9 -99.99 -9.99
2019/10/16 04:30 PDT    4.29   4.28    8  286   10  54.5  62.1 1016.7 -9.9 -9.999 -99.9 -99.99 -9.99
2019/10/16 04:36 PDT    4.19   4.18    6  285    9  54.7  62.1 1016.8 -9.9 -9.999 -99.9 -99.99 -9.99
2019/10/16 04:42 PDT    4.09   4.05    5  286    8  54.9  62.1 1016.8 -9.9 -9.999 -99.9 -99.99 -9.99
2019/10/16 04:48 PDT    4.00   3.95    7  284    8  54.9  62.1 1016.9 -9.9 -9.999 -99.9 -99.99 -9.99
2019/10/16 04:54 PDT    3.90   3.84    7  283    8  54.7  62.1 1017.0 -9.9 -9.999 -99.9 -99.99 -9.99
2019/10/16 05:00 PDT    3.80   3.73    5  279    8  54.9  62.1 1017.0 -9.9 -9.999 -99.9 -99.99 -9.99
2019/10/16 05:06 PDT    3.70   3.62    6  286    9  54.9  62.1 1017.0 -9.9 -9.999 -99.9 -99.99 -9.99
2019/10/16 05:12 PDT    3.60   3.53    6  285   10  54.9  62.1 1017.0 -9.9 -9.999 -99.9 -99.99 -9.99
2019/10/16 05:18 PDT    3.50   3.43    6  285    9  54.7  62.1 1017.0 -9.9 -9.999 -99.9 -99.99 -9.99
2019/10/16 05:24 PDT    3.41   3.30    6  289    8  54.7  62.1 1017.0 -9.9 -9.999 -99.9 -99.99 -9.99
2019/10/16 05:30 PDT    3.31   3.18    5  282    7  54.7  62.1 1017.0 -9.9 -9.999 -99.9 -99.99 -9.99
2019/10/16 05:36 PDT    3.22   3.11    4  282    5  54.5  62.1 1016.9 -9.9 -9.999 -99.9 -99.99 -9.99
2019/10/16 05:42 PDT    3.13   3.03    3  287    5  54.7  62.1 1016.8 -9.9 -9.999 -99.9 -99.99 -9.99
2019/10/16 05:48 PDT    3.05   2.93    4  287    5  54.5  62.1 1016.8 -9.9 -9.999 -99.9 -99.99 -9.99
2019/10/16 05:54 PDT    2.96   2.82    3  291    4  54.7  62.1 1016.8 -9.9 -9.999 -99.9 -99.99 -9.99
2019/10/16 06:00 PDT    2.88   2.75    3  284    5  54.9  62.1 1016.7 -9.9 -9.999 -99.9 -99.99 -9.99
2019/10/16 06:06 PDT    2.81   2.68    2  279    4  54.7  62.1 1016.6 -9.9 -9.999 -99.9 -99.99 -9.99
2019/10/16 06:12 PDT    2.73   2.62    1  287    3  54.7  62.1 1016.7 -9.9 -9.999 -99.9 -99.99 -9.99
2019/10/16 06:18 PDT    2.66   2.59    1  305    2  54.7  62.1 1016.7 -9.9 -9.999 -99.9 -99.99 -9.99
2019/10/16 06:24 PDT    2.60   2.55    1  302    1  54.7  62.1 1016.8 -9.9 -9.999 -99.9 -99.99 -9.99
2019/10/16 06:30 PDT    2.54   2.49    2   68    2  54.1  62.1 1016.7 -9.9 -9.999 -99.9 -99.99 -9.99
2019/10/16 06:36 PDT    2.48   2.42    1   51    2  53.8  62.1 1016.8 -9.9 -9.999 -99.9 -99.99 -9.99
2019/10/16 06:42 PDT    2.43   2.38    2   31    2  53.6  61.9 1016.8 -9.9 -9.999 -99.9 -99.99 -9.99
2019/10/16 06:48 PDT    2.38   2.35    1   42    2  53.8  61.9 1016.9 -9.9 -9.999 -99.9 -99.99 -9.99
2019/10/16 06:54 PDT    2.34   2.30    2   31    2  53.6  61.9 1016.9 -9.9 -9.999 -99.9 -99.99 -9.99
2019/10/16 07:00 PDT    2.30   2.24    1   54    3  54.0  61.9 1016.8 -9.9 -9.999 -99.9 -99.99 -9.99
2019/10/16 07:06 PDT    2.27   2.21    1   40    2  54.0  61.9 1016.8 -9.9 -9.999 -99.9 -99.99 -9.99
2019/10/16 07:12 PDT    2.24   2.18    1   82    2  54.0  61.9 1016.8 -9.9 -9.999 -99.9 -99.99 -9.99
2019/10/16 07:18 PDT    2.22   2.15    2   88    3  54.0  61.9 1016.8 -9.9 -9.999 -99.9 -99.99 -9.99
2019/10/16 07:24 PDT    2.20   2.13    1   78    3  53.8  61.9 1016.9 -9.9 -9.999 -99.9 -99.99 -9.99
2019/10/16 07:30 PDT    2.18   2.14    1   63    2  53.8  61.9 1016.9 -9.9 -9.999 -99.9 -99.99 -9.99
2019/10/16 07:36 PDT    2.17   2.15    1   82    3  53.8  61.9 1016.9 -9.9 -9.999 -99.9 -99.99 -9.99
2019/10/16 07:42 PDT    2.17   2.13    1   83    1  54.0  61.7 1016.9 -9.9 -9.999 -99.9 -99.99 -9.99
2019/10/16 07:48 PDT    2.17   2.14    1  118    2  53.6  61.7 1017.0 -9.9 -9.999 -99.9 -99.99 -9.99
2019/10/16 07:54 PDT    2.18   2.15    3   94    4  53.2  61.7 1016.9 -9.9 -9.999 -99.9 -99.99 -9.99
2019/10/16 08:00 PDT    2.19   2.17    3   90    4  53.2  61.7 1017.0 -9.9 -9.999 -99.9 -99.99 -9.99
2019/10/16 08:06 PDT    2.20   2.20    3   90    4  53.4  61.7 1017.0 -9.9 -9.999 -99.9 -99.99 -9.99
2019/10/16 08:12 PDT    2.23   2.23    2  102    4  54.0  61.7 1017.1 -9.9 -9.999 -99.9 -99.99 -9.99
2019/10/16 08:18 PDT    2.25   2.27    2   78    4  54.5  61.7 1016.9 -9.9 -9.999 -99.9 -99.99 -9.99
2019/10/16 08:24 PDT    2.28   2.33    3   91    4  54.3  61.7 1016.9 -9.9 -9.999 -99.9 -99.99 -9.99
2019/10/16 08:30 PDT    2.32   2.41    2   90    4  54.5  61.7 1016.9 -9.9 -9.999 -99.9 -99.99 -9.99
2019/10/16 08:36 PDT    2.36   2.46    2   93    3  54.3  61.7 1017.1 -9.9 -9.999 -99.9 -99.99 -9.99
2019/10/16 08:42 PDT    2.40   2.53    2   88    3  54.1  61.7 1017.2 -9.9 -9.999 -99.9 -99.99 -9.99
2019/10/16 08:48 PDT    2.45   2.58    3   92    3  54.3  61.7 1017.2 -9.9 -9.999 -99.9 -99.99 -9.99
2019/10/16 08:54 PDT    2.51   2.63    3   91    4  54.5  61.7 1017.2 -9.9 -9.999 -99.9 -99.99 -9.99
2019/10/16 09:00 PDT    2.57   2.68    2   86    3  54.5  61.7 1017.2 -9.9 -9.999 -99.9 -99.99 -9.99
2019/10/16 09:06 PDT    2.63   2.76    2   91    3  54.7  61.7 1017.1 -9.9 -9.999 -99.9 -99.99 -9.99
2019/10/16 09:12 PDT    2.70   2.84    3  105    4  54.9  61.7 1017.1 -9.9 -9.999 -99.9 -99.99 -9.99
2019/10/16 09:18 PDT    2.78   2.93    3   92    3  54.9  61.7 1017.1 -9.9 -9.999 -99.9 -99.99 -9.99
2019/10/16 09:24 PDT    2.85   2.99    3  110    3  55.0  61.5 1017.2 -9.9 -9.999 -99.9 -99.99 -9.99
2019/10/16 09:30 PDT    2.93   3.06    2  109    3  55.0  61.5 1017.4 -9.9 -9.999 -99.9 -99.99 -9.99
2019/10/16 09:36 PDT    3.02   3.14    3  109    3  55.4  61.5 1017.5 -9.9 -9.999 -99.9 -99.99 -9.99
2019/10/16 09:42 PDT    3.11   3.24    2  106    3  55.4  61.5 1017.3 -9.9 -9.999 -99.9 -99.99 -9.99
2019/10/16 09:48 PDT    3.20   3.35    3  104    3  55.6  61.5 1017.3 -9.9 -9.999 -99.9 -99.99 -9.99
2019/10/16 09:54 PDT    3.30   3.48    2  102    3  55.6  61.5 1017.4 -9.9 -9.999 -99.9 -99.99 -9.99
2019/10/16 10:00 PDT    3.40   3.59    1  105    2  56.1  61.3 1017.5 -9.9 -9.999 -99.9 -99.99 -9.99
2019/10/16 10:06 PDT    3.50   3.71    1  101    3  56.3  61.3 1017.5 -9.9 -9.999 -99.9 -99.99 -9.99
2019/10/16 10:12 PDT    3.61   3.81    2  114    3  56.3  61.3 1017.5 -9.9 -9.999 -99.9 -99.99 -9.99
2019/10/16 10:18 PDT    3.71   3.91    3  142    4  56.8  61.3 1017.7 -9.9 -9.999 -99.9 -99.99 -9.99
2019/10/16 10:24 PDT    3.82   4.01    2  114    4  56.7  61.3 1017.5 -9.9 -9.999 -99.9 -99.99 -9.99
2019/10/16 10:30 PDT    3.93   4.10    3  117    3  56.7  61.3 1017.4 -9.9 -9.999 -99.9 -99.99 -9.99
2019/10/16 10:36 PDT    4.05   4.22    1  251    3  56.3  61.3 1017.3 -9.9 -9.999 -99.9 -99.99 -9.99
2019/10/16 10:42 PDT    4.16   4.34    1  139    2  56.7  61.3 1017.2 -9.9 -9.999 -99.9 -99.99 -9.99
2019/10/16 10:48 PDT    4.27   4.46    3  162    4  56.7  61.3 1017.2 -9.9 -9.999 -99.9 -99.99 -9.99
2019/10/16 10:54 PDT    4.39   4.57    2  156    3  56.8  61.3 1017.1 -9.9 -9.999 -99.9 -99.99 -9.99
2019/10/16 11:00 PDT    4.50   4.66    2  161    3  56.8  61.3 1017.1 -9.9 -9.999 -99.9 -99.99 -9.99
2019/10/16 11:06 PDT    4.61   4.74    3  143    3  57.0  61.3 1017.0 -9.9 -9.999 -99.9 -99.99 -9.99
2019/10/16 11:12 PDT    4.73   4.86    2  132    3  56.8  61.3 1017.0 -9.9 -9.999 -99.9 -99.99 -9.99
2019/10/16 11:18 PDT    4.84   5.01    2  136    3  57.2  61.3 1016.9 -9.9 -9.999 -99.9 -99.99 -9.99
2019/10/16 11:24 PDT    4.95   5.12    3  165    4  57.4  61.3 1016.9 -9.9 -9.999 -99.9 -99.99 -9.99
2019/10/16 11:30 PDT    5.06   5.18    3  188    3  57.4  61.3 1016.7 -9.9 -9.999 -99.9 -99.99 -9.99
2019/10/16 11:36 PDT    5.16   5.26    3  164    4  57.4  61.3 1016.7 -9.9 -9.999 -99.9 -99.99 -9.99
2019/10/16 11:42 PDT    5.27   5.38    3  186    4  57.6  61.3 1016.7 -9.9 -9.999 -99.9 -99.99 -9.99
2019/10/16 11:48 PDT    5.37   5.48    3  190    4  57.6  61.3 1016.6 -9.9 -9.999 -99.9 -99.99 -9.99
2019/10/16 11:54 PDT    5.46   5.57    2  201    3  57.7  61.3 1016.4 -9.9 -9.999 -99.9 -99.99 -9.99
2019/10/16 12:00 PDT    5.56   5.65    1  191    2  57.9  61.3 1016.4 -9.9 -9.999 -99.9 -99.99 -9.99
2019/10/16 12:06 PDT    5.65   5.72    2  184    3  58.3  61.3 1016.4 -9.9 -9.999 -99.9 -99.99 -9.99
2019/10/16 12:12 PDT    5.73   5.79    2  180    3  58.3  61.3 1016.3 -9.9 -9.999 -99.9 -99.99 -9.99
2019/10/16 12:18 PDT    5.82   5.89    2  150    3  58.3  61.3 1016.1 -9.9 -9.999 -99.9 -99.99 -9.99
2019/10/16 12:24 PDT    5.89   6.01    2  120    3  59.0  61.3 1016.0 -9.9 -9.999 -99.9 -99.99 -9.99
2019/10/16 12:30 PDT    5.97   6.09    2  197    3  58.8  61.3 1016.1 -9.9 -9.999 -99.9 -99.99 -9.99
2019/10/16 12:36 PDT    6.04   6.10    2  146    3  59.0  61.3 1016.0 -9.9 -9.999 -99.9 -99.99 -9.99
2019/10/16 12:42 PDT    6.10   6.17    2  159    3  60.1  61.3 1015.8 -9.9 -9.999 -99.9 -99.99 -9.99
2019/10/16 12:48 PDT    6.16   6.28    2  161    3  59.7  61.3 1015.8 -9.9 -9.999 -99.9 -99.99 -9.99
2019/10/16 12:54 PDT    6.21   6.33    1  154    3  59.9  61.3 1015.6 -9.9 -9.999 -99.9 -99.99 -9.99
2019/10/16 13:00 PDT    6.26   6.36    2  209    2  59.9  61.3 1015.6 -9.9 -9.999 -99.9 -99.99 -9.99
2019/10/16 13:06 PDT    6.30   6.42    2  187    2  59.9  61.3 1015.4 -9.9 -9.999 -99.9 -99.99 -9.99
2019/10/16 13:12 PDT    6.34   6.48    2  196    2  60.1  61.3 1015.4 -9.9 -9.999 -99.9 -99.99 -9.99
2019/10/16 13:18 PDT    6.37   6.49    1  186    2  60.4  61.3 1015.3 -9.9 -9.999 -99.9 -99.99 -9.99
2019/10/16 13:24 PDT    6.40   6.52    2  205    3  59.9  61.3 1015.2 -9.9 -9.999 -99.9 -99.99 -9.99
2019/10/16 13:30 PDT    6.42   6.54    2  198    3  60.3  61.3 1015.3 -9.9 -9.999 -99.9 -99.99 -9.99
2019/10/16 13:36 PDT    6.43   6.55    2  202    3  60.1  61.3 1015.1 -9.9 -9.999 -99.9 -99.99 -9.99
2019/10/16 13:42 PDT    6.44   6.57    2  193    3  60.4  61.3 1015.0 -9.9 -9.999 -99.9 -99.99 -9.99
2019/10/16 13:48 PDT    6.44   6.59    2  168    3  60.8  61.3 1014.9 -9.9 -9.999 -99.9 -99.99 -9.99
2019/10/16 13:54 PDT    6.44   6.56    2  164    3  60.8  61.3 1014.7 -9.9 -9.999 -99.9 -99.99 -9.99
2019/10/16 14:00 PDT    6.43   6.52    2  228    2  60.6  61.3 1014.7 -9.9 -9.999 -99.9 -99.99 -9.99
2019/10/16 14:06 PDT    6.41   6.50    1  191    2  61.2  61.3 1014.5 -9.9 -9.999 -99.9 -99.99 -9.99
2019/10/16 14:12 PDT    6.39   6.47    2  203    3  60.6  61.3 1014.6 -9.9 -9.999 -99.9 -99.99 -9.99
2019/10/16 14:18 PDT    6.36   6.42    2  216    2  60.6  61.3 1014.5 -9.9 -9.999 -99.9 -99.99 -9.99
2019/10/16 14:24 PDT    6.32   6.37    2  220    3  60.6  61.3 1014.5 -9.9 -9.999 -99.9 -99.99 -9.99
2019/10/16 14:30 PDT    6.28   6.32    3  241    3  60.4  61.3 1014.5 -9.9 -9.999 -99.9 -99.99 -9.99
2019/10/16 14:36 PDT    6.23   6.23    2  259    3  60.6  61.3 1014.3 -9.9 -9.999 -99.9 -99.99 -9.99
2019/10/16 14:42 PDT    6.17   6.14    2  288    3  61.5  61.3 1014.2 -9.9 -9.999 -99.9 -99.99 -9.99
2019/10/16 14:48 PDT    6.11   6.08    4  259    5  61.0  61.3 1014.2 -9.9 -9.999 -99.9 -99.99 -9.99
2019/10/16 14:54 PDT    6.04   6.01    3  273    5  61.3  61.3 1014.1 -9.9 -9.999 -99.9 -99.99 -9.99
2019/10/16 15:00 PDT    5.97   5.93    4  273    5  60.8  61.3 1014.0 -9.9 -9.999 -99.9 -99.99 -9.99
2019/10/16 15:06 PDT    5.89   5.86    3  281    4  60.8  61.3 1014.1 -9.9 -9.999 -99.9 -99.99 -9.99
2019/10/16 15:12 PDT    5.80   5.76    3  280    5  61.2  61.3 1014.1 -9.9 -9.999 -99.9 -99.99 -9.99
2019/10/16 15:18 PDT    5.70   5.61    6  281    9  61.7  61.3 1014.2 -9.9 -9.999 -99.9 -99.99 -9.99
2019/10/16 15:24 PDT    5.60   5.50    8  281   11  61.3  61.3 1014.3 -9.9 -9.999 -99.9 -99.99 -9.99
2019/10/16 15:30 PDT    5.50   5.40    9  283   12  61.2  61.3 1014.2 -9.9 -9.999 -99.9 -99.99 -9.99
2019/10/16 15:36 PDT    5.39   5.28    8  278   11  60.6  61.3 1014.1 -9.9 -9.999 -99.9 -99.99 -9.99
2019/10/16 15:42 PDT    5.27   5.16    8  266   12  60.6  61.3 1014.1 -9.9 -9.999 -99.9 -99.99 -9.99
2019/10/16 15:48 PDT    5.15   5.00    9  283   12  60.3  61.3 1014.0 -9.9 -9.999 -99.9 -99.99 -9.99
2019/10/16 15:54 PDT    5.02   4.85    8  284   12  60.4  61.3 1014.0 -9.9 -9.999 -99.9 -99.99 -9.99
2019/10/16 16:00 PDT    4.89   4.71    8  284   11  60.4  61.3 1014.0 -9.9 -9.999 -99.9 -99.99 -9.99
2019/10/16 16:06 PDT    4.75   4.57    6  262    9  60.4  61.3 1014.1 -9.9 -9.999 -99.9 -99.99 -9.99
2019/10/16 16:12 PDT    4.61   4.39    5  274    8  60.6  61.5 1013.9 -9.9 -9.999 -99.9 -99.99 -9.99
2019/10/16 16:18 PDT    4.47   4.22    6  279   10  60.8  61.5 1013.8 -9.9 -9.999 -99.9 -99.99 -9.99
2019/10/16 16:24 PDT    4.32   4.12    8  261   10  60.6  61.7 1013.8 -9.9 -9.999 -99.9 -99.99 -9.99
2019/10/16 16:30 PDT    4.17   4.01    7  269    9  60.8  61.7 1013.8 -9.9 -9.999 -99.9 -99.99 -9.99
2019/10/16 16:36 PDT    4.02   3.86    7  284   11  60.8  61.7 1013.6 -9.9 -9.999 -99.9 -99.99 -9.99
2019/10/16 16:42 PDT    3.87   3.71    6  280    9  60.8  61.7 1013.5 -9.9 -9.999 -99.9 -99.99 -9.99
2019/10/16 16:48 PDT    3.71   3.55    7  284    9  60.8  61.7 1013.5 -9.9 -9.999 -99.9 -99.99 -9.99
2019/10/16 16:54 PDT    3.56   3.39    8  282   11  61.0  61.7 1013.5 -9.9 -9.999 -99.9 -99.99 -9.99
2019/10/16 17:00 PDT    3.40   3.25   11  275   15  61.0  61.9 1013.4 -9.9 -9.999 -99.9 -99.99 -9.99
2019/10/16 17:06 PDT    3.25   3.12   10  280   14  61.0  61.9 1013.3 -9.9 -9.999 -99.9 -99.99 -9.99
2019/10/16 17:12 PDT    3.09   3.00   10  280   14  61.2  61.9 1013.3 -9.9 -9.999 -99.9 -99.99 -9.99
2019/10/16 17:18 PDT    2.94   2.85   11  278   13  61.0  61.9 1013.3 -9.9 -9.999 -99.9 -99.99 -9.99
2019/10/16 17:24 PDT    2.78   2.70   11  278   15  61.0  61.9 1013.3 -9.9 -9.999 -99.9 -99.99 -9.99
2019/10/16 17:30 PDT    2.63   2.57   10  279   14  60.8  61.9 1013.1 -9.9 -9.999 -99.9 -99.99 -9.99
2019/10/16 17:36 PDT    2.48   2.45   11  278   14  60.6  61.9 1013.2 -9.9 -9.999 -99.9 -99.99 -9.99
2019/10/16 17:42 PDT    2.34   2.31    9  276   15  60.6  62.1 1013.2 -9.9 -9.999 -99.9 -99.99 -9.99
2019/10/16 17:48 PDT    2.19   2.19    9  282   13  60.6  62.1 1013.2 -9.9 -9.999 -99.9 -99.99 -9.99
2019/10/16 17:54 PDT    2.05   2.08    9  281   11  60.6  62.1 1013.2 -9.9 -9.999 -99.9 -99.99 -9.99
2019/10/16 18:00 PDT    1.92   1.93    8  281   10  60.8  62.1 1013.1 -9.9 -9.999 -99.9 -99.99 -9.99
2019/10/16 18:06 PDT    1.79   1.79    9  277   11  60.8  62.1 1013.0 -9.9 -9.999 -99.9 -99.99 -9.99
2019/10/16 18:12 PDT    1.66   1.69   10  282   14  60.8  62.1 1012.9 -9.9 -9.999 -99.9 -99.99 -9.99
2019/10/16 18:18 PDT    1.54   1.62    8  279   11  60.8  62.1 1013.0 -9.9 -9.999 -99.9 -99.99 -9.99
2019/10/16 18:24 PDT    1.42   1.53    9  279   12  60.8  62.1 1013.0 -9.9 -9.999 -99.9 -99.99 -9.99
2019/10/16 18:30 PDT    1.31   1.44    8  274   11  60.6  62.1 1013.0 -9.9 -9.999 -99.9 -99.99 -9.99
2019/10/16 18:36 PDT    1.20   1.33    7  270   10  60.4  62.1 1013.0 -9.9 -9.999 -99.9 -99.99 -9.99
2019/10/16 18:42 PDT    1.10   1.22    8  272   11  60.4  62.1 1013.0 -9.9 -9.999 -99.9 -99.99 -9.99
2019/10/16 18:48 PDT    1.01   1.13    6  273   10  60.4  62.1 1012.9 -9.9 -9.999 -99.9 -99.99 -9.99
2019/10/16 18:54 PDT    0.92   1.08    6  268    9  60.3  62.1 1012.9 -9.9 -9.999 -99.9 -99.99 -9.99
2019/10/16 19:00 PDT    0.84   1.02    6  275    9  60.3  62.1 1013.0 -9.9 -9.999 -99.9 -99.99 -9.99
2019/10/16 19:06 PDT    0.76   0.95    6  272    9  60.4  62.1 1013.0 -9.9 -9.999 -99.9 -99.99 -9.99
2019/10/16 19:12 PDT    0.69   0.85    8  280   11  60.4  62.1 1013.0 -9.9 -9.999 -99.9 -99.99 -9.99
2019/10/16 19:18 PDT    0.62   0.75    5  282    8  60.6  62.1 1013.0 -9.9 -9.999 -99.9 -99.99 -9.99
2019/10/16 19:24 PDT    0.56   0.68    7  279    9  60.3  62.1 1013.1 -9.9 -9.999 -99.9 -99.99 -9.99
2019/10/16 19:30 PDT    0.51   0.64    7  276   10  60.1  62.1 1013.2 -9.9 -9.999 -99.9 -99.99 -9.99
2019/10/16 19:36 PDT    0.46   0.60    7  278   10  60.1  62.1 1013.2 -9.9 -9.999 -99.9 -99.99 -9.99
2019/10/16 19:42 PDT    0.42   0.54    5  273   10  60.1  62.1 1013.2 -9.9 -9.999 -99.9 -99.99 -9.99
2019/10/16 19:48 PDT    0.39   0.47    3  272    6  60.1  62.1 1013.1 -9.9 -9.999 -99.9 -99.99 -9.99
2019/10/16 19:54 PDT    0.36   0.44    4  272    6  59.9  62.1 1013.2 -9.9 -9.999 -99.9 -99.99 -9.99
2019/10/16 20:00 PDT    0.33   0.39    4  266    7  60.1  62.1 1013.2 -9.9 -9.999 -99.9 -99.99 -9.99
2019/10/16 20:06 PDT    0.32   0.36    4  265    8  60.1  62.1 1013.1 -9.9 -9.999 -99.9 -99.99 -9.99
2019/10/16 20:12 PDT    0.30   0.34    4  267    6  59.9  62.1 1013.1 -9.9 -9.999 -99.9 -99.99 -9.99
2019/10/16 20:18 PDT    0.30   0.35    4  284    6  60.1  62.1 1013.1 -9.9 -9.999 -99.9 -99.99 -9.99
2019/10/16 20:24 PDT    0.30   0.34    3  264    5  59.9  61.9 1013.0 -9.9 -9.999 -99.9 -99.99 -9.99
2019/10/16 20:30 PDT    0.30   0.34    2  268    4  60.3  61.9 1012.9 -9.9 -9.999 -99.9 -99.99 -9.99
2019/10/16 20:36 PDT    0.31   0.34    0  300    3  59.9  61.9 1012.9 -9.9 -9.999 -99.9 -99.99 -9.99
2019/10/16 20:42 PDT    0.33   0.32    3  225    3  59.7  61.9 1013.0 -9.9 -9.999 -99.9 -99.99 -9.99
2019/10/16 20:48 PDT    0.35   0.34    1  152    3  59.9  61.9 1013.0 -9.9 -9.999 -99.9 -99.99 -9.99
2019/10/16 20:54 PDT    0.38   0.39    2  181    3  60.1  61.9 1012.9 -9.9 -9.999 -99.9 -99.99 -9.99
2019/10/16 21:00 PDT    0.41   0.44    5  223    6  59.9  61.9 1013.1 -9.9 -9.999 -99.9 -99.99 -9.99
2019/10/16 21:06 PDT    0.45   0.47    3  184    5  59.7  61.9 1013.0 -9.9 -9.999 -99.9 -99.99 -9.99
2019/10/16 21:12 PDT    0.49   0.49    4  202    5  59.9  61.9 1013.0 -9.9 -9.999 -99.9 -99.99 -9.99
2019/10/16 21:18 PDT    0.53   0.55    5  220    6  59.7  61.9 1012.9 -9.9 -9.999 -99.9 -99.99 -9.99
2019/10/16 21:24 PDT    0.59   0.59    3  169    5  59.7  61.9 1012.9 -9.9 -9.999 -99.9 -99.99 -9.99
2019/10/16 21:30 PDT    0.64   0.65    6  223    7  59.9  61.9 1013.0 -9.9 -9.999 -99.9 -99.99 -9.99
2019/10/16 21:36 PDT    0.70   0.70    5  234    7  59.7  61.9 1013.1 -9.9 -9.999 -99.9 -99.99 -9.99
2019/10/16 21:42 PDT    0.77   0.77    6  248    8  59.9  61.9 1013.1 -9.9 -9.999 -99.9 -99.99 -9.99
2019/10/16 21:48 PDT    0.84   0.85    7  247    9  59.7  61.9 1013.1 -9.9 -9.999 -99.9 -99.99 -9.99
2019/10/16 21:54 PDT    0.91   0.93    6  255    9  59.5  61.9 1013.0 -9.9 -9.999 -99.9 -99.99 -9.99
2019/10/16 22:00 PDT    0.99   1.00    5  252    8  59.7  61.9 1012.9 -9.9 -9.999 -99.9 -99.99 -9.99
2019/10/16 22:06 PDT    1.08   1.08    4  249    6  59.7  61.9 1012.9 -9.9 -9.999 -99.9 -99.99 -9.99
2019/10/16 22:12 PDT    1.16   1.19    6  246    7  59.9  61.9 1012.9 -9.9 -9.999 -99.9 -99.99 -9.99
2019/10/16 22:18 PDT    1.25   1.31    5  252    6  59.7  61.9 1013.1 -9.9 -9.999 -99.9 -99.99 -9.99
2019/10/16 22:24 PDT    1.35   1.41    7  253    8  59.5  61.9 1013.2 -9.9 -9.999 -99.9 -99.99 -9.99
2019/10/16 22:30 PDT    1.44   1.50    4  239    7  59.9  61.7 1013.1 -9.9 -9.999 -99.9 -99.99 -9.99
2019/10/16 22:36 PDT    1.54   1.60    6  256    8  59.7  61.7 1013.2 -9.9 -9.999 -99.9 -99.99 -9.99
2019/10/16 22:42 PDT    1.64   1.70    6  257    8  59.5  61.7 1013.2 -9.9 -9.999 -99.9 -99.99 -9.99
2019/10/16 22:48 PDT    1.75   1.83    6  266    8  59.5  61.7 1013.3 -9.9 -9.999 -99.9 -99.99 -9.99
2019/10/16 22:54 PDT    1.86   1.96    6  265    8  59.7  61.7 1013.4 -9.9 -9.999 -99.9 -99.99 -9.99
2019/10/16 23:00 PDT    1.97   2.05    6  266    8  59.9  61.7 1013.4 -9.9 -9.999 -99.9 -99.99 -9.99
2019/10/16 23:06 PDT    2.08   2.14    6  266    8  59.9  61.7 1013.3 -9.9 -9.999 -99.9 -99.99 -9.99
2019/10/16 23:12 PDT    2.19   2.24    7  265    9  59.7  61.7 1013.2 -9.9 -9.999 -99.9 -99.99 -9.99
2019/10/16 23:18 PDT    2.30   2.36    6  271    8  59.7  61.7 1013.1 -9.9 -9.999 -99.9 -99.99 -9.99
2019/10/16 23:24 PDT    2.41   2.48    6  267    8  59.9  61.7 1013.1 -9.9 -9.999 -99.9 -99.99 -9.99
2019/10/16 23:30 PDT    2.53   2.60    6  265    8  59.7  61.7 1013.0 -9.9 -9.999 -99.9 -99.99 -9.99
2019/10/16 23:36 PDT    2.64   2.73    6  263    8  59.9  61.7 1013.0 -9.9 -9.999 -99.9 -99.99 -9.99
2019/10/16 23:42 PDT    2.76   2.85    6  263    8  59.9  61.7 1013.0 -9.9 -9.999 -99.9 -99.99 -9.99
2019/10/16 23:48 PDT    2.87   2.94    6  246    7  59.7  61.7 1012.9 -9.9 -9.999 -99.9 -99.99 -9.99
2019/10/16 23:54 PDT    2.98   3.09    5  246    7  59.9  61.7 1012.9 -9.9 -9.999 -99.9 -99.99 -9.99
2019/10/17 00:00 PDT    3.10   3.23    7  252    8  59.9  61.7 1013.0 -9.9 -9.999 -99.9 -99.99 -9.99
2019/10/17 00:06 PDT    3.21   3.34    6  246    7  59.9  61.7 1013.0 -9.9 -9.999 -99.9 -99.99 -9.99
2019/10/17 00:12 PDT    3.32   3.43    4  259    6  59.9  61.7 1013.0 -9.9 -9.999 -99.9 -99.99 -9.99
2019/10/17 00:18 PDT    3.43   3.53    3  260    4  59.7  61.7 1013.0 -9.9 -9.999 -99.9 -99.99 -9.99
2019/10/17 00:24 PDT    3.53   3.62    3  271    4  59.7  61.7 1013.1 -9.9 -9.999 -99.9 -99.99 -9.99
2019/10/17 00:30 PDT    3.64   3.73    3  247    5  59.7  61.7 1013.1 -9.9 -9.999 -99.9 -99.99 -9.99
2019/10/17 00:36 PDT    3.74   3.88    5  229    8  59.2  61.7 1013.0 -9.9 -9.999 -99.9 -99.99 -9.99
2019/10/17 00:42 PDT    3.84   4.02    5  249    6  59.0  61.7 1013.1 -9.9 -9.999 -99.9 -99.99 -9.99
2019/10/17 00:48 PDT    3.94   4.10    4  261    5  59.0  61.7 1013.1 -9.9 -9.999 -99.9 -99.99 -9.99
2019/10/17 00:54 PDT    4.03   4.14    5  274    6  59.0  61.7 1013.1 -9.9 -9.999 -99.9 -99.99 -9.99
2019/10/17 01:00 PDT    4.12   4.23    4  260    6  58.6  61.7 1012.9 -9.9 -9.999 -99.9 -99.99 -9.99
2019/10/17 01:06 PDT    4.21   4.39    4  273    5  58.6  61.7 1013.0 -9.9 -9.999 -99.9 -99.99 -9.99
2019/10/17 01:12 PDT    4.30   4.48    5  281    6  58.3  61.7 1013.1 -9.9 -9.999 -99.9 -99.99 -9.99
2019/10/17 01:18 PDT    4.38   4.54    5  271    6  58.3  61.7 1013.1 -9.9 -9.999 -99.9 -99.99 -9.99
2019/10/17 01:24 PDT    4.46   4.61    3  264    6  58.3  61.5 1013.0 -9.9 -9.999 -99.9 -99.99 -9.99
2019/10/17 01:30 PDT    4.54   4.68    3  255    4  58.3  61.5 1012.9 -9.9 -9.999 -99.9 -99.99 -9.99
2019/10/17 01:36 PDT    4.61   4.77    4  254    6  58.5  61.5 1013.0 -9.9 -9.999 -99.9 -99.99 -9.99
2019/10/17 01:42 PDT    4.68   4.87    4  252    5  58.5  61.5 1013.0 -9.9 -9.999 -99.9 -99.99 -9.99
2019/10/17 01:48 PDT    4.75   4.97    3  288    4  58.1  61.5 1013.1 -9.9 -9.999 -99.9 -99.99 -9.99
2019/10/17 01:54 PDT    4.81   5.01    4  262    5  58.3  61.5 1013.1 -9.9 -9.999 -99.9 -99.99 -9.99
2019/10/17 02:00 PDT    4.87   5.05    5  266    7  58.3  61.5 1013.1 -9.9 -9.999 -99.9 -99.99 -9.99
2019/10/17 02:06 PDT    4.92   5.13    5  261    6  58.3  61.5 1013.2 -9.9 -9.999 -99.9 -99.99 -9.99
2019/10/17 02:12 PDT    4.97   5.22    5  251    6  58.3  61.5 1013.1 -9.9 -9.999 -99.9 -99.99 -9.99
2019/10/17 02:18 PDT    5.02   5.28    5  256    7  58.5  61.5 1013.1 -9.9 -9.999 -99.9 -99.99 -9.99
2019/10/17 02:24 PDT    5.06   5.28    4  249    5  58.3  61.5 1013.1 -9.9 -9.999 -99.9 -99.99 -9.99
2019/10/17 02:30 PDT    5.10   5.27    3  235    5  58.5  61.5 1013.0 -9.9 -9.999 -99.9 -99.99 -9.99
2019/10/17 02:36 PDT    5.13   5.32    4  249    6  58.5  61.5 1013.0 -9.9 -9.999 -99.9 -99.99 -9.99
2019/10/17 02:42 PDT    5.16   5.41    5  245    6  58.5  61.7 1013.0 -9.9 -9.999 -99.9 -99.99 -9.99
2019/10/17 02:48 PDT    5.18   5.46    4  250    7  58.6  61.7 1013.1 -9.9 -9.999 -99.9 -99.99 -9.99
2019/10/17 02:54 PDT    5.20   5.43    5  259    7  58.6  61.7 1013.1 -9.9 -9.999 -99.9 -99.99 -9.99
2019/10/17 03:00 PDT    5.22   5.43    5  249    6  58.5  61.7 1013.0 -9.9 -9.999 -99.9 -99.99 -9.99
2019/10/17 03:06 PDT    5.23   5.47    4  254    6  58.6  61.7 1013.1 -9.9 -9.999 -99.9 -99.99 -9.99
2019/10/17 03:12 PDT    5.23   5.49    4  260    5  58.6  61.7 1013.1 -9.9 -9.999 -99.9 -99.99 -9.99
2019/10/17 03:18 PDT    5.23   5.48    5  257    6  58.6  61.7 1013.1 -9.9 -9.999 -99.9 -99.99 -9.99
2019/10/17 03:24 PDT    5.23   5.49    4  268    7  58.5  61.5 1013.0 -9.9 -9.999 -99.9 -99.99 -9.99
2019/10/17 03:30 PDT    5.22   5.47    4  281    5  58.5  61.5 1013.0 -9.9 -9.999 -99.9 -99.99 -9.99
2019/10/17 03:36 PDT    5.20   5.43    5  255    7  58.6  61.5 1013.0 -9.9 -9.999 -99.9 -99.99 -9.99
2019/10/17 03:42 PDT    5.18   5.43    4  234    7  58.5  61.5 1012.9 -9.9 -9.999 -99.9 -99.99 -9.99
2019/10/17 03:48 PDT    5.15   5.46    5  245    6  58.5  61.5 1013.0 -9.9 -9.999 -99.9 -99.99 -9.99
2019/10/17 03:54 PDT    5.12   5.42    5  248    7  58.6  61.5 1013.0 -9.9 -9.999 -99.9 -99.99 -9.99
2019/10/17 04:00 PDT    5.09   5.34    5  255    7  58.5  61.5 1013.1 -9.9 -9.999 -99.9 -99.99 -9.99
2019/10/17 04:06 PDT    5.04   5.30    3  241    5  58.3  61.5 1013.0 -9.9 -9.999 -99.9 -99.99 -9.99
2019/10/17 04:12 PDT    5.00   5.27    2  225    4  58.3  61.5 1013.1 -9.9 -9.999 -99.9 -99.99 -9.99
2019/10/17 04:18 PDT    4.95   5.22    1  289    3  58.5  61.5 1013.1 -9.9 -9.999 -99.9 -99.99 -9.99
2019/10/17 04:24 PDT    4.89   5.12    5  261    7  58.5  61.5 1013.1 -9.9 -9.999 -99.9 -99.99 -9.99
2019/10/17 04:30 PDT    4.83   5.02    4  275    6  58.5  61.5 1013.0 -9.9 -9.999 -99.9 -99.99 -9.99
2019/10/17 04:36 PDT    4.77   4.98    5  249    6  58.5  61.5 1013.0 -9.9 -9.999 -99.9 -99.99 -9.99
2019/10/17 04:42 PDT    4.70   4.92    6  260    8  58.5  61.5 1013.0 -9.9 -9.999 -99.9 -99.99 -9.99
2019/10/17 04:48 PDT    4.63   4.84    7  255    9  58.6  61.5 1013.1 -9.9 -9.999 -99.9 -99.99 -9.99
2019/10/17 04:54 PDT    4.56   4.73    8  259   10  58.5  61.5 1013.2 -9.9 -9.999 -99.9 -99.99 -9.99
2019/10/17 05:00 PDT    4.48   4.64    7  277    9  57.9  61.5 1013.2 -9.9 -9.999 -99.9 -99.99 -9.99
2019/10/17 05:06 PDT    4.41   4.56    6  270    9  57.9  61.5 1013.1 -9.9 -9.999 -99.9 -99.99 -9.99
2019/10/17 05:12 PDT    4.32   4.48    6  270    8  57.7  61.5 1013.1 -9.9 -9.999 -99.9 -99.99 -9.99
2019/10/17 05:18 PDT    4.24   4.42    7  275    9  57.7  61.5 1013.2 -9.9 -9.999 -99.9 -99.99 -9.99
2019/10/17 05:24 PDT    4.16   4.34    6  277    8  57.7  61.5 1013.2 -9.9 -9.999 -99.9 -99.99 -9.99
2019/10/17 05:30 PDT    4.07   4.23    7  281    9  57.6  61.5 1013.3 -9.9 -9.999 -99.9 -99.99 -9.99
2019/10/17 05:36 PDT    3.99   4.13    6  280    9  57.7  61.5 1013.3 -9.9 -9.999 -99.9 -99.99 -9.99
2019/10/17 05:42 PDT    3.90   4.05    6  279    8  57.7  61.5 1013.4 -9.9 -9.999 -99.9 -99.99 -9.99
2019/10/17 05:48 PDT    3.82   3.99    6  280    9  57.7  61.5 1013.5 -9.9 -9.999 -99.9 -99.99 -9.99
2019/10/17 05:54 PDT    3.73   3.91    7  279    9  57.6  61.5 1013.5 -9.9 -9.999 -99.9 -99.99 -9.99
2019/10/17 06:00 PDT    3.65   3.79    6  278    9  57.6  61.5 1013.5 -9.9 -9.999 -99.9 -99.99 -9.99
2019/10/17 06:06 PDT    3.56   3.68    6  276    9  57.6  61.5 1013.6 -9.9 -9.999 -99.9 -99.99 -9.99
2019/10/17 06:12 PDT    3.48   3.59    7  281    8  57.4  61.5 1013.6 -9.9 -9.999 -99.9 -99.99 -9.99
2019/10/17 06:18 PDT    3.40   3.53    6  281    8  57.6  61.5 1013.7 -9.9 -9.999 -99.9 -99.99 -9.99
2019/10/17 06:24 PDT    3.32   3.46    5  276    7  57.6  61.5 1013.7 -9.9 -9.999 -99.9 -99.99 -9.99
2019/10/17 06:30 PDT    3.25   3.40    6  282    8  57.6  61.5 1013.8 -9.9 -9.999 -99.9 -99.99 -9.99
2019/10/17 06:36 PDT    3.18   3.31    7  282    9  57.6  61.5 1013.9 -9.9 -9.999 -99.9 -99.99 -9.99
2019/10/17 06:42 PDT    3.11   3.21    6  280    7  58.1  61.5 1014.1 -9.9 -9.999 -99.9 -99.99 -9.99
2019/10/17 06:48 PDT    3.04   3.14    6  283    7  58.1  61.5 1014.1 -9.9 -9.999 -99.9 -99.99 -9.99
2019/10/17 06:54 PDT    2.98   3.06    5  285    7  58.3  61.5 1014.2 -9.9 -9.999 -99.9 -99.99 -9.99
2019/10/17 07:00 PDT    2.92   3.02    5  281    7  58.3  61.5 1014.2 -9.9 -9.999 -99.9 -99.99 -9.99
2019/10/17 07:06 PDT    2.87   2.99    5  280    7  58.1  61.5 1014.1 -9.9 -9.999 -99.9 -99.99 -9.99
2019/10/17 07:12 PDT    2.82   2.93    6  281    7  58.1  61.5 1014.1 -9.9 -9.999 -99.9 -99.99 -9.99
2019/10/17 07:18 PDT    2.77   2.86    6  281    7  58.1  61.5 1014.2 -9.9 -9.999 -99.9 -99.99 -9.99
2019/10/17 07:24 PDT    2.73   2.82    5  284    7  58.1  61.5 1014.1 -9.9 -9.999 -99.9 -99.99 -9.99
2019/10/17 07:30 PDT    2.69   2.78    5  283    6  58.1  61.3 1014.0 -9.9 -9.999 -99.9 -99.99 -9.99
2019/10/17 07:36 PDT    2.66   2.74    5  282    7  58.3  61.3 1014.0 -9.9 -9.999 -99.9 -99.99 -9.99
2019/10/17 07:42 PDT    2.63   2.72    6  281    8  58.1  61.3 1014.1 -9.9 -9.999 -99.9 -99.99 -9.99
2019/10/17 07:48 PDT    2.60   2.69    5  273    8  58.1  61.3 1014.1 -9.9 -9.999 -99.9 -99.99 -9.99
2019/10/17 07:54 PDT    2.58   2.68    5  269    8  58.3  61.3 1014.0 -9.9 -9.999 -99.9 -99.99 -9.99
2019/10/17 08:00 PDT    2.57   2.66    4  262    6  58.1  61.3 1013.9 -9.9 -9.999 -99.9 -99.99 -9.99
2019/10/17 08:06 PDT    2.56   2.62    2  265    5  58.1  61.3 1014.0 -9.9 -9.999 -99.9 -99.99 -9.99
2019/10/17 08:12 PDT    2.55   2.62    1  283    2  58.5  61.3 1014.1 -9.9 -9.999 -99.9 -99.99 -9.99
2019/10/17 08:18 PDT    2.55   2.62    3  247    4  57.9  61.3 1014.2 -9.9 -9.999 -99.9 -99.99 -9.99
2019/10/17 08:24 PDT    2.55   2.64    2  259    4  58.5  61.3 1014.3 -9.9 -9.999 -99.9 -99.99 -9.99
2019/10/17 08:30 PDT    2.55   2.67    1  270    2  58.8  61.3 1014.4 -9.9 -9.999 -99.9 -99.99 -9.99
2019/10/17 08:36 PDT    2.57   2.71    1  354    3  59.2  61.2 1014.5 -9.9 -9.999 -99.9 -99.99 -9.99
2019/10/17 08:42 PDT    2.58   2.72    2  351    3  59.2  61.2 1014.6 -9.9 -9.999 -99.9 -99.99 -9.99
2019/10/17 08:48 PDT    2.60   2.75    3  299    4  59.4  61.2 1014.8 -9.9 -9.999 -99.9 -99.99 -9.99
2019/10/17 08:54 PDT    2.62   2.77    4  285    6  59.5  61.2 1014.9 -9.9 -9.999 -99.9 -99.99 -9.99
2019/10/17 09:00 PDT    2.65   2.80    4  285    6  59.5  61.2 1015.0 -9.9 -9.999 -99.9 -99.99 -9.99
2019/10/17 09:06 PDT    2.69   2.84    3  303    6  59.9  61.2 1015.1 -9.9 -9.999 -99.9 -99.99 -9.99
2019/10/17 09:12 PDT    2.72   2.90    4  295    5  60.1  61.2 1015.2 -9.9 -9.999 -99.9 -99.99 -9.99
2019/10/17 09:18 PDT    2.76   2.95    4  291    6  60.3  61.2 1015.2 -9.9 -9.999 -99.9 -99.99 -9.99
2019/10/17 09:24 PDT    2.81   3.00    4  291    6  60.4  61.2 1015.2 -9.9 -9.999 -99.9 -99.99 -9.99
2019/10/17 09:30 PDT    2.86   3.03    5  291    7  60.3  61.2 1015.3 -9.9 -9.999 -99.9 -99.99 -9.99
2019/10/17 09:36 PDT    2.91   3.05    5  286    6  60.3  61.2 1015.3 -9.9 -9.999 -99.9 -99.99 -9.99
2019/10/17 09:42 PDT    2.97   3.10    4  288    6  60.6  61.2 1015.3 -9.9 -9.999 -99.9 -99.99 -9.99
2019/10/17 09:48 PDT    3.03   3.18    3  290    5  61.0  61.2 1015.4 -9.9 -9.999 -99.9 -99.99 -9.99
2019/10/17 09:54 PDT    3.10   3.27    2  335    4  61.3  61.2 1015.5 -9.9 -9.999 -99.9 -99.99 -9.99
2019/10/17 10:00 PDT    3.17   3.35    4  331    6  60.6  61.2 1015.6 -9.9 -9.999 -99.9 -99.99 -9.99
2019/10/17 10:06 PDT    3.24   3.44    3  332    4  61.3  61.2 1015.7 -9.9 -9.999 -99.9 -99.99 -9.99
2019/10/17 10:12 PDT    3.32   3.53    4  285    7  61.2  61.2 1015.7 -9.9 -9.999 -99.9 -99.99 -9.99
2019/10/17 10:18 PDT    3.40   3.59    3  304    8  61.5  61.2 1015.9 -9.9 -9.999 -99.9 -99.99 -9.99
2019/10/17 10:24 PDT    3.48   3.67    6  284    8  61.3  61.2 1016.0 -9.9 -9.999 -99.9 -99.99 -9.99
2019/10/17 10:30 PDT    3.57   3.79    4  301    7  61.3  61.2 1016.0 -9.9 -9.999 -99.9 -99.99 -9.99
2019/10/17 10:36 PDT    3.66   3.90    4  308    7  61.5  61.2 1016.0 -9.9 -9.999 -99.9 -99.99 -9.99
2019/10/17 10:42 PDT    3.75   4.02    4  294    5  61.7  61.2 1016.0 -9.9 -9.999 -99.9 -99.99 -9.99
2019/10/17 10:48 PDT    3.85   4.10    4  275    6  61.3  61.2 1016.1 -9.9 -9.999 -99.9 -99.99 -9.99
2019/10/17 10:54 PDT    3.95   4.18    5  291    7  61.7  61.2 1016.1 -9.9 -9.999 -99.9 -99.99 -9.99
2019/10/17 11:00 PDT    4.05   4.26    3  291    5  62.2  61.2 1016.1 -9.9 -9.999 -99.9 -99.99 -9.99
2019/10/17 11:06 PDT    4.15   4.35    4  292    5  62.1  61.2 1016.1 -9.9 -9.999 -99.9 -99.99 -9.99
2019/10/17 11:12 PDT    4.25   4.46    3  303    5  61.9  61.2 1016.1 -9.9 -9.999 -99.9 -99.99 -9.99
2019/10/17 11:18 PDT    4.35   4.55    3  314    5  62.6  61.2 1016.0 -9.9 -9.999 -99.9 -99.99 -9.99
2019/10/17 11:24 PDT    4.46   4.63    4  308    6  62.2  61.2 1016.0 -9.9 -9.999 -99.9 -99.99 -9.99
2019/10/17 11:30 PDT    4.56   4.74    4  337    6  62.4  61.2 1016.0 -9.9 -9.999 -99.9 -99.99 -9.99
2019/10/17 11:36 PDT    4.67   4.87    3  324    6  63.5  61.2 1016.0 -9.9 -9.999 -99.9 -99.99 -9.99
2019/10/17 11:42 PDT    4.77   4.95    1  318    5  63.3  61.3 1016.0 -9.9 -9.999 -99.9 -99.99 -9.99
2019/10/17 11:48 PDT    4.88   5.06    3  306    6  63.3  61.3 1016.0 -9.9 -9.999 -99.9 -99.99 -9.99
2019/10/17 11:54 PDT    4.98   5.17    5  277    7  62.6  61.3 1016.0 -9.9 -9.999 -99.9 -99.99 -9.99
2019/10/17 12:00 PDT    5.08   5.24    3  266    5  62.1  61.3 1016.1 -9.9 -9.999 -99.9 -99.99 -9.99
2019/10/17 12:06 PDT    5.18   5.32    5  278    6  63.0  61.3 1016.0 -9.9 -9.999 -99.9 -99.99 -9.99
2019/10/17 12:12 PDT    5.28   5.43    6  277    7  62.6  61.3 1016.0 -9.9 -9.999 -99.9 -99.99 -9.99
2019/10/17 12:18 PDT    5.38   5.52    7  258    8  61.5  61.3 1016.0 -9.9 -9.999 -99.9 -99.99 -9.99
2019/10/17 12:24 PDT    5.47   5.61    6  259    8  61.7  61.3 1016.0 -9.9 -9.999 -99.9 -99.99 -9.99
2019/10/17 12:30 PDT    5.56   5.68    5  257    6  61.5  61.3 1015.9 -9.9 -9.999 -99.9 -99.99 -9.99
2019/10/17 12:36 PDT    5.65   5.74    5  258    6  61.5  61.3 1015.9 -9.9 -9.999 -99.9 -99.99 -9.99
2019/10/17 12:42 PDT    5.74   5.81    5  256    6  61.7  61.3 1015.9 -9.9 -9.999 -99.9 -99.99 -9.99
2019/10/17 12:48 PDT    5.82   5.88    4  253    5  61.9  61.3 1015.9 -9.9 -9.999 -99.9 -99.99 -9.99
2019/10/17 12:54 PDT    5.89   5.98    3  242    4  62.1  61.3 1015.9 -9.9 -9.999 -99.9 -99.99 -9.99
2019/10/17 13:00 PDT    5.97   6.05    3  244    4  62.4  61.3 1015.9 -9.9 -9.999 -99.9 -99.99 -9.99
2019/10/17 13:06 PDT    6.03   6.09    6  265    8  63.0  61.3 1015.8 -9.9 -9.999 -99.9 -99.99 -9.99
2019/10/17 13:12 PDT    6.10   6.12    7  270   10  63.1  61.3 1015.7 -9.9 -9.999 -99.9 -99.99 -9.99
2019/10/17 13:18 PDT    6.16   6.17   10  264   11  62.8  61.3 1015.7 -9.9 -9.999 -99.9 -99.99 -9.99
2019/10/17 13:24 PDT    6.21   6.24    8  269   11  63.3  61.3 1015.7 -9.9 -9.999 -99.9 -99.99 -9.99
2019/10/17 13:30 PDT    6.26   6.29    8  265   11  63.0  61.3 1015.6 -9.9 -9.999 -99.9 -99.99 -9.99
2019/10/17 13:36 PDT    6.30   6.34    8  264   11  62.8  61.3 1015.5 -9.9 -9.999 -99.9 -99.99 -9.99
2019/10/17 13:42 PDT    6.34   6.37    8  264   10  63.0  61.3 1015.5 -9.9 -9.999 -99.9 -99.99 -9.99
2019/10/17 13:48 PDT    6.37   6.41    9  263   11  63.0  61.3 1015.4 -9.9 -9.999 -99.9 -99.99 -9.99
2019/10/17 13:54 PDT    6.40   6.47    7  278   11  63.9  61.3 1015.4 -9.9 -9.999 -99.9 -99.99 -9.99
2019/10/17 14:00 PDT    6.42   6.52    9  278   11  64.0  61.3 1015.4 -9.9 -9.999 -99.9 -99.99 -9.99
2019/10/17 14:06 PDT    6.44   6.50    8  279   11  64.2  61.5 1015.4 -9.9 -9.999 -99.9 -99.99 -9.99
2019/10/17 14:12 PDT    6.45   6.45    9  279   12  64.0  61.5 1015.3 -9.9 -9.999 -99.9 -99.99 -9.99
2019/10/17 14:18 PDT    6.45   6.48    9  276   13  64.0  61.5 1015.2 -9.9 -9.999 -99.9 -99.99 -9.99
2019/10/17 14:24 PDT    6.45   6.51    9  279   12  64.0  61.5 1015.2 -9.9 -9.999 -99.9 -99.99 -9.99
2019/10/17 14:30 PDT    6.44   6.52   11  280   14  64.2  61.7 1015.2 -9.9 -9.999 -99.9 -99.99 -9.99
2019/10/17 14:36 PDT    6.43   6.46   10  279   12  63.9  61.7 1015.2 -9.9 -9.999 -99.9 -99.99 -9.99
2019/10/17 14:42 PDT    6.41   6.38   10  278   13  63.9  61.7 1015.2 -9.9 -9.999 -99.9 -99.99 -9.99
2019/10/17 14:48 PDT    6.38   6.35    8  274   12  63.7  61.7 1015.2 -9.9 -9.999 -99.9 -99.99 -9.99
2019/10/17 14:54 PDT    6.35   6.32   10  277   12  63.3  61.9 1015.2 -9.9 -9.999 -99.9 -99.99 -9.99
2019/10/17 15:00 PDT    6.31   6.28   10  278   12  63.3  61.9 1015.2 -9.9 -9.999 -99.9 -99.99 -9.99
2019/10/17 15:06 PDT    6.26   6.23    8  276   14  63.7  62.1 1015.2 -9.9 -9.999 -99.9 -99.99 -9.99
2019/10/17 15:12 PDT    6.21   6.17   11  278   15  63.5  62.1 1015.1 -9.9 -9.999 -99.9 -99.99 -9.99
2019/10/17 15:18 PDT    6.16   6.10   10  284   15  63.9  62.1 1015.1 -9.9 -9.999 -99.9 -99.99 -9.99
2019/10/17 15:24 PDT    6.09   6.05   11  282   17  63.9  62.1 1015.1 -9.9 -9.999 -99.9 -99.99 -9.99
2019/10/17 15:30 PDT    6.02   5.97   11  284   16  63.9  62.2 1015.1 -9.9 -9.999 -99.9 -99.99 -9.99
2019/10/17 15:36 PDT    5.95   5.85   12  283   16  63.7  62.2 1015.2 -9.9 -9.999 -99.9 -99.99 -9.99
2019/10/17 15:42 PDT    5.87   5.74   12  286   16  63.9  62.2 1015.2 -9.9 -9.999 -99.9 -99.99 -9.99
2019/10/17 15:48 PDT    5.78   5.65   11  285   14  63.9  62.2 1015.3 -9.9 -9.999 -99.9 -99.99 -9.99
2019/10/17 15:54 PDT    5.69   5.58   10  278   13  63.1  62.4 1015.2 -9.9 -9.999 -99.9 -99.99 -9.99
2019/10/17 16:00 PDT    5.59   5.48 -999 -999 -999 -99.9 -99.9 -999.9 -9.9 -9.999 -99.9 -99.99 -9.99
2019/10/17 16:06 PDT    5.48   5.36   10  278   14  62.8  62.2 1015.3 -9.9 -9.999 -99.9 -99.99 -9.99
2019/10/17 16:12 PDT    5.37   5.21   11  281   14  63.0  62.2 1015.2 -9.9 -9.999 -99.9 -99.99 -9.99
2019/10/17 16:18 PDT    5.26   5.08   11  282   16  63.0  62.2 1015.2 -9.9 -9.999 -99.9 -99.99 -9.99
2019/10/17 16:24 PDT    5.14   4.97   11  280   14  62.6  62.2 1015.0 -9.9 -9.999 -99.9 -99.99 -9.99
2019/10/17 16:30 PDT    5.02   4.85   11  281   14  62.6  62.2 1015.1 -9.9 -9.999 -99.9 -99.99 -9.99
2019/10/17 16:36 PDT    4.89   4.71 -999 -999 -999 -99.9 -99.9 -999.9 -9.9 -9.999 -99.9 -99.99 -9.99
2019/10/17 16:42 PDT    4.75   4.58   11  282   15  62.8  62.2 1015.2 -9.9 -9.999 -99.9 -99.99 -9.99
2019/10/17 16:48 PDT    4.61   4.43   12  281   15  62.2  62.4 1015.2 -9.9 -9.999 -99.9 -99.99 -9.99
2019/10/17 16:54 PDT    4.47   4.28   11  279   15  62.4  62.4 1015.2 -9.9 -9.999 -99.9 -99.99 -9.99
2019/10/17 17:00 PDT    4.33   4.12   11  280   15  62.1  62.4 1015.2 -9.9 -9.999 -99.9 -99.99 -9.99
2019/10/17 17:06 PDT    4.18   3.99   11  280   14  62.1  62.4 1015.2 -9.9 -9.999 -99.9 -99.99 -9.99
2019/10/17 17:12 PDT    4.03   3.84   10  281   13  62.2  62.4 1015.1 -9.9 -9.999 -99.9 -99.99 -9.99
2019/10/17 17:18 PDT    3.88   3.67   10  282   14  62.4  62.4 1015.1 -9.9 -9.999 -99.9 -99.99 -9.99
2019/10/17 17:24 PDT    3.73   3.56   11  279   14  62.2  62.4 1015.2 -9.9 -9.999 -99.9 -99.99 -9.99
2019/10/17 17:30 PDT    3.57   3.43    8  281   11  62.2  62.4 1015.1 -9.9 -9.999 -99.9 -99.99 -9.99
2019/10/17 17:36 PDT    3.42   3.29    9  279   12  61.7  62.4 1015.1 -9.9 -9.999 -99.9 -99.99 -9.99
2019/10/17 17:42 PDT    3.26   3.13    8  276   11  61.7  62.4 1015.0 -9.9 -9.999 -99.9 -99.99 -9.99
2019/10/17 17:48 PDT    3.11   3.01    8  276   11  61.7  62.4 1015.1 -9.9 -9.999 -99.9 -99.99 -9.99
2019/10/17 17:54 PDT    2.95   2.86    8  277   11  61.5  62.4 1015.1 -9.9 -9.999 -99.9 -99.99 -9.99
2019/10/17 18:00 PDT    2.80   2.71    9  279   11  61.3  62.4 1015.1 -9.9 -9.999 -99.9 -99.99 -9.99
2019/10/17 18:06 PDT    2.65   2.58    8  282   13  61.2  62.4 1015.0 -9.9 -9.999 -99.9 -99.99 -9.99
2019/10/17 18:12 PDT    2.50   2.46    7  282   10  61.5  62.4 1015.1 -9.9 -9.999 -99.9 -99.99 -9.99
2019/10/17 18:18 PDT    2.35   2.32    7  283    9  61.3  62.4 1015.1 -9.9 -9.999 -99.9 -99.99 -9.99
2019/10/17 18:24 PDT    2.20   2.18    6  282    8  61.3  62.4 1015.0 -9.9 -9.999 -99.9 -99.99 -9.99
2019/10/17 18:30 PDT    2.06   2.06    6  287   10  61.5  62.4 1015.0 -9.9 -9.999 -99.9 -99.99 -9.99
2019/10/17 18:36 PDT    1.92   1.94    7  283    9  61.3  62.4 1015.1 -9.9 -9.999 -99.9 -99.99 -9.99
2019/10/17 18:42 PDT    1.79   1.85    6  284    9  61.3  62.4 1015.1 -9.9 -9.999 -99.9 -99.99 -9.99
2019/10/17 18:48 PDT    1.66   1.74    8  285    9  61.2  62.2 1015.2 -9.9 -9.999 -99.9 -99.99 -9.99
2019/10/17 18:54 PDT    1.54   1.63    7  282   10  61.0  62.2 1015.3 -9.9 -9.999 -99.9 -99.99 -9.99
2019/10/17 19:00 PDT    1.42   1.51    8  283   11  60.8  62.4 1015.4 -9.9 -9.999 -99.9 -99.99 -9.99
2019/10/17 19:06 PDT    1.30   1.42    7  285    9  60.8  62.4 1015.4 -9.9 -9.999 -99.9 -99.99 -9.99
2019/10/17 19:12 PDT    1.19   1.34    7  285    9  60.8  62.4 1015.5 -9.9 -9.999 -99.9 -99.99 -9.99
2019/10/17 19:18 PDT    1.09   1.25    7  284    9  60.8  62.4 1015.5 -9.9 -9.999 -99.9 -99.99 -9.99
2019/10/17 19:24 PDT    0.99   1.13    7  288    8  60.6  62.2 1015.6 -9.9 -9.999 -99.9 -99.99 -9.99
2019/10/17 19:30 PDT    0.90   1.03    6  289    9  60.6  62.4 1015.7 -9.9 -9.999 -99.9 -99.99 -9.99
2019/10/17 19:36 PDT    0.81   0.93    4  298    6  60.6  62.2 1015.7 -9.9 -9.999 -99.9 -99.99 -9.99
2019/10/17 19:42 PDT    0.73   0.83    5  290    6  60.6  62.2 1015.7 -9.9 -9.999 -99.9 -99.99 -9.99
2019/10/17 19:48 PDT    0.66   0.76    5  292    8  60.8  62.2 1015.6 -9.9 -9.999 -99.9 -99.99 -9.99
2019/10/17 19:54 PDT    0.59   0.73    6  295    8  60.8  62.2 1015.7 -9.9 -9.999 -99.9 -99.99 -9.99
2019/10/17 20:00 PDT    0.52   0.66    6  300    8  61.0  62.4 1015.6 -9.9 -9.999 -99.9 -99.99 -9.99
2019/10/17 20:06 PDT    0.47   0.58    4  312    8  61.3  62.4 1015.7 -9.9 -9.999 -99.9 -99.99 -9.99
2019/10/17 20:12 PDT    0.42   0.53    6  316   10  61.3  62.4 1015.7 -9.9 -9.999 -99.9 -99.99 -9.99
2019/10/17 20:18 PDT    0.37   0.47    6  317   10  61.2  62.4 1015.6 -9.9 -9.999 -99.9 -99.99 -9.99
2019/10/17 20:24 PDT    0.34   0.41    6  322   12  60.8  62.4 1015.6 -9.9 -9.999 -99.9 -99.99 -9.99
2019/10/17 20:30 PDT    0.30   0.40    6  317   11  60.6  62.4 1015.7 -9.9 -9.999 -99.9 -99.99 -9.99
2019/10/17 20:36 PDT    0.28   0.35    5  318    9  60.4  62.4 1015.7 -9.9 -9.999 -99.9 -99.99 -9.99
2019/10/17 20:42 PDT    0.26   0.31    5  319    9  60.6  62.4 1015.7 -9.9 -9.999 -99.9 -99.99 -9.99
2019/10/17 20:48 PDT    0.24   0.25    5  340    9  60.8  62.4 1015.7 -9.9 -9.999 -99.9 -99.99 -9.99
2019/10/17 20:54 PDT    0.23   0.20    5  325   10  60.6  62.4 1015.8 -9.9 -9.999 -99.9 -99.99 -9.99
2019/10/17 21:00 PDT    0.23   0.16    5  311    9  60.4  62.4 1015.8 -9.9 -9.999 -99.9 -99.99 -9.99
2019/10/17 21:06 PDT    0.23   0.18    5  308    8  60.4  62.4 1015.8 -9.9 -9.999 -99.9 -99.99 -9.99
2019/10/17 21:12 PDT    0.24   0.19    5  323    7  60.4  62.4 1015.8 -9.9 -9.999 -99.9 -99.99 -9.99
2019/10/17 21:18 PDT    0.25   0.18    5  317    9  60.6  62.4 1015.8 -9.9 -9.999 -99.9 -99.99 -9.99
2019/10/17 21:24 PDT    0.26   0.15    4  315    8  60.6  62.4 1015.9 -9.9 -9.999 -99.9 -99.99 -9.99
2019/10/17 21:30 PDT    0.29   0.16    4  310    9  60.8  62.4 1015.8 -9.9 -9.999 -99.9 -99.99 -9.99
2019/10/17 21:36 PDT    0.31   0.18    4  307    6  60.8  62.2 1016.0 -9.9 -9.999 -99.9 -99.99 -9.99
2019/10/17 21:42 PDT    0.34   0.20    5  312    8  61.0  62.2 1016.1 -9.9 -9.999 -99.9 -99.99 -9.99
2019/10/17 21:48 PDT    0.38   0.22    4  317    7  61.3  62.2 1016.1 -9.9 -9.999 -99.9 -99.99 -9.99
2019/10/17 21:54 PDT    0.42   0.28    4  338    7  61.5  62.2 1016.1 -9.9 -9.999 -99.9 -99.99 -9.99
2019/10/17 22:00 PDT    0.47   0.34    4  328    7  61.3  62.2 1016.1 -9.9 -9.999 -99.9 -99.99 -9.99
2019/10/17 22:06 PDT    0.52   0.36    5  307    7  61.2  62.2 1016.3 -9.9 -9.999 -99.9 -99.99 -9.99
2019/10/17 22:12 PDT    0.57   0.36    5  309    9  61.2  62.2 1016.4 -9.9 -9.999 -99.9 -99.99 -9.99
2019/10/17 22:18 PDT    0.63   0.42    5  303    8  61.0  62.2 1016.4 -9.9 -9.999 -99.9 -99.99 -9.99
2019/10/17 22:24 PDT    0.69   0.46    4  306   11  61.0  62.2 1016.5 -9.9 -9.999 -99.9 -99.99 -9.99
2019/10/17 22:30 PDT    0.76   0.54    4  304    7  60.8  62.2 1016.6 -9.9 -9.999 -99.9 -99.99 -9.99
2019/10/17 22:36 PDT    0.83   0.67    6  300    9  60.8  62.2 1016.7 -9.9 -9.999 -99.9 -99.99 -9.99
2019/10/17 22:42 PDT    0.90   0.71    4  295   10  60.8  62.2 1016.8 -9.9 -9.999 -99.9 -99.99 -9.99
2019/10/17 22:48 PDT    0.98   0.72    8  292   11  61.0  62.2 1016.8 -9.9 -9.999 -99.9 -99.99 -9.99
2019/10/17 22:54 PDT    1.06   0.83    5  290   11  60.8  62.2 1016.9 -9.9 -9.999 -99.9 -99.99 -9.99
2019/10/17 23:00 PDT    1.15   0.92    6  290    9  60.8  62.2 1016.8 -9.9 -9.999 -99.9 -99.99 -9.99
2019/10/17 23:06 PDT    1.23   0.99    6  289    9  60.6  62.2 1016.8 -9.9 -9.999 -99.9 -99.99 -9.99
2019/10/17 23:12 PDT    1.33   1.10    3  294    9  60.4  62.2 1016.9 -9.9 -9.999 -99.9 -99.99 -9.99
2019/10/17 23:18 PDT    1.42   1.22    2  311    5  60.4  62.2 1017.0 -9.9 -9.999 -99.9 -99.99 -9.99
2019/10/17 23:24 PDT    1.52   1.30    3  338    6  60.4  62.2 1017.0 -9.9 -9.999 -99.9 -99.99 -9.99
2019/10/17 23:30 PDT    1.61   1.40    4  348    7  60.4  62.1 1017.0 -9.9 -9.999 -99.9 -99.99 -9.99
2019/10/17 23:36 PDT    1.72   1.50    3  325    8  60.3  62.1 1016.9 -9.9 -9.999 -99.9 -99.99 -9.99
2019/10/17 23:42 PDT    1.82   1.62    5  339    9  60.3  62.1 1017.0 -9.9 -9.999 -99.9 -99.99 -9.99
2019/10/17 23:48 PDT    1.92   1.74    5  354   11  60.1  62.1 1016.9 -9.9 -9.999 -99.9 -99.99 -9.99
2019/10/17 23:54 PDT    2.03   1.86    7  351   11  60.1  62.1 1016.9 -9.9 -9.999 -99.9 -99.99 -9.99
2019/10/18 00:00 PDT    2.13   1.94    5  343   11  59.9  62.1 1016.9 -9.9 -9.999 -99.9 -99.99 -9.99
2019/10/18 00:06 PDT    2.24   2.04    4  316    7  59.7  62.1 1016.9 -9.9 -9.999 -99.9 -99.99 -9.99
2019/10/18 00:12 PDT    2.35   2.16    3  316    9  59.7  62.1 1017.0 -9.9 -9.999 -99.9 -99.99 -9.99
2019/10/18 00:18 PDT    2.46   2.28    3  321    7  59.5  62.1 1017.0 -9.9 -9.999 -99.9 -99.99 -9.99
2019/10/18 00:24 PDT    2.57   2.41    3  305    5  59.4  61.9 1017.1 -9.9 -9.999 -99.9 -99.99 -9.99
2019/10/18 00:30 PDT    2.67   2.49    2  307    5  59.4  61.9 1017.2 -9.9 -9.999 -99.9 -99.99 -9.99
2019/10/18 00:36 PDT    2.78   2.63    4  297    5  59.4  61.7 1017.2 -9.9 -9.999 -99.9 -99.99 -9.99
2019/10/18 00:42 PDT    2.89   2.72    5  297    6  59.2  61.7 1017.2 -9.9 -9.999 -99.9 -99.99 -9.99
2019/10/18 00:48 PDT    2.99   2.84    5  304    7  59.2  61.7 1017.2 -9.9 -9.999 -99.9 -99.99 -9.99
2019/10/18 00:54 PDT    3.10   2.94    3  312    6  59.2  61.7 1017.2 -9.9 -9.999 -99.9 -99.99 -9.99
2019/10/18 01:00 PDT    3.20   3.11    3  303    5  59.2  61.7 1017.2 -9.9 -9.999 -99.9 -99.99 -9.99
2019/10/18 01:06 PDT    3.30   3.20    4  299    6  59.0  61.7 1017.3 -9.9 -9.999 -99.9 -99.99 -9.99
2019/10/18 01:12 PDT    3.41   3.29    4  313    6  59.0  61.7 1017.3 -9.9 -9.999 -99.9 -99.99 -9.99
2019/10/18 01:18 PDT    3.50   3.39    4  311    5  59.0  61.7 1017.4 -9.9 -9.999 -99.9 -99.99 -9.99
2019/10/18 01:24 PDT    3.60   3.49    3  320    5  59.0  61.7 1017.4 -9.9 -9.999 -99.9 -99.99 -9.99
2019/10/18 01:30 PDT    3.69   3.60    3  343    5  59.0  61.7 1017.4 -9.9 -9.999 -99.9 -99.99 -9.99
2019/10/18 01:36 PDT    3.79   3.72    4    1    7  59.0  61.7 1017.4 -9.9 -9.999 -99.9 -99.99 -9.99
2019/10/18 01:42 PDT    3.87   3.80    4  360    7  59.0  61.7 1017.4 -9.9 -9.999 -99.9 -99.99 -9.99
2019/10/18 01:48 PDT    3.96   3.88    3  340    5  59.0  61.7 1017.4 -9.9 -9.999 -99.9 -99.99 -9.99
2019/10/18 01:54 PDT    4.05   3.93    0   41    2  59.0  61.7 1017.5 -9.9 -9.999 -99.9 -99.99 -9.99
2019/10/18 02:00 PDT    4.13   4.00    1    6    2  58.8  61.7 1017.6 -9.9 -9.999 -99.9 -99.99 -9.99
2019/10/18 02:06 PDT    4.21   4.09    0   27    2  58.8  61.7 1017.6 -9.9 -9.999 -99.9 -99.99 -9.99
2019/10/18 02:12 PDT    4.28   4.18    2  231    2  59.0  61.7 1017.6 -9.9 -9.999 -99.9 -99.99 -9.99
2019/10/18 02:18 PDT    4.35   4.24    1  266    2  58.8  61.7 1017.6 -9.9 -9.999 -99.9 -99.99 -9.99
2019/10/18 02:24 PDT    4.42   4.37    2  294    2  58.6  61.7 1017.6 -9.9 -9.999 -99.9 -99.99 -9.99
2019/10/18 02:30 PDT    4.49   4.43    2  301    3  58.6  61.7 1017.7 -9.9 -9.999 -99.9 -99.99 -9.99
2019/10/18 02:36 PDT    4.55   4.47    3  342    4  58.6  61.7 1017.8 -9.9 -9.999 -99.9 -99.99 -9.99
2019/10/18 02:42 PDT    4.61   4.52    4  359    5  58.6  61.7 1017.8 -9.9 -9.999 -99.9 -99.99 -9.99
2019/10/18 02:48 PDT    4.67   4.63    4   18    6  58.6  61.7 1017.7 -9.9 -9.999 -99.9 -99.99 -9.99
2019/10/18 02:54 PDT    4.72   4.73    3   20    5  58.5  61.7 1017.7 -9.9 -9.999 -99.9 -99.99 -9.99
2019/10/18 03:00 PDT    4.77   4.74    3   21    5  58.1  61.7 1017.8 -9.9 -9.999 -99.9 -99.99 -9.99
2019/10/18 03:06 PDT    4.82   4.77    2   21    4  57.9  61.7 1017.8 -9.9 -9.999 -99.9 -99.99 -9.99
2019/10/18 03:12 PDT    4.86   4.85    4   23    6  57.7  61.7 1017.6 -9.9 -9.999 -99.9 -99.99 -9.99
2019/10/18 03:18 PDT    4.90   4.92    4   23    7  57.9  61.7 1017.6 -9.9 -9.999 -99.9 -99.99 -9.99
2019/10/18 03:24 PDT    4.93   4.96    2   56    5  57.7  61.7 1017.7 -9.9 -9.999 -99.9 -99.99 -9.99
2019/10/18 03:30 PDT    4.96   4.99    1   71    3  57.7  61.7 1017.8 -9.9 -9.999 -99.9 -99.99 -9.99
2019/10/18 03:36 PDT    4.99   5.01    0  113    2  57.6  61.7 1017.7 -9.9 -9.999 -99.9 -99.99 -9.99
2019/10/18 03:42 PDT    5.01   5.01    1  105    1  57.4  61.7 1017.7 -9.9 -9.999 -99.9 -99.99 -9.99
2019/10/18 03:48 PDT    5.03   5.02    0  131    1  57.6  61.7 1017.7 -9.9 -9.999 -99.9 -99.99 -9.99
2019/10/18 03:54 PDT    5.04   5.03    1    6    2  57.6  61.7 1017.6 -9.9 -9.999 -99.9 -99.99 -9.99
2019/10/18 04:00 PDT    5.05   5.05    1   44    2  57.6  61.7 1017.5 -9.9 -9.999 -99.9 -99.99 -9.99
2019/10/18 04:06 PDT    5.06   5.05    0   98    2  57.4  61.7 1017.6 -9.9 -9.999 -99.9 -99.99 -9.99
2019/10/18 04:12 PDT    5.06   5.05    0   67    1  57.0  61.7 1017.6 -9.9 -9.999 -99.9 -99.99 -9.99
2019/10/18 04:18 PDT    5.05   5.02    0   70    0  56.8  61.7 1017.6 -9.9 -9.999 -99.9 -99.99 -9.99
2019/10/18 04:24 PDT    5.04   5.05    1   91    1  57.0  61.7 1017.7 -9.9 -9.999 -99.9 -99.99 -9.99
2019/10/18 04:30 PDT    5.03   5.02    1  110    1  57.0  61.7 1017.8 -9.9 -9.999 -99.9 -99.99 -9.99
2019/10/18 04:36 PDT    5.01   4.97    1   86    1  57.2  61.7 1017.8 -9.9 -9.999 -99.9 -99.99 -9.99
2019/10/18 04:42 PDT    4.99   4.93    0   86    1  56.8  61.7 1017.8 -9.9 -9.999 -99.9 -99.99 -9.99
2019/10/18 04:48 PDT    4.96   4.95    0    8    1  56.7  61.7 1017.9 -9.9 -9.999 -99.9 -99.99 -9.99
2019/10/18 04:54 PDT    4.93   4.97    0   54    1  57.0  61.7 1017.9 -9.9 -9.999 -99.9 -99.99 -9.99
2019/10/18 05:00 PDT    4.90   4.90    0   71    1  57.2  61.7 1017.9 -9.9 -9.999 -99.9 -99.99 -9.99
2019/10/18 05:06 PDT    4.86   4.79    1  108    1  57.6  61.7 1017.9 -9.9 -9.999 -99.9 -99.99 -9.99
2019/10/18 05:12 PDT    4.82   4.69    2  101    3  57.2  61.7 1017.9 -9.9 -9.999 -99.9 -99.99 -9.99
2019/10/18 05:18 PDT    4.77   4.66    1   99    3  56.8  61.7 1018.0 -9.9 -9.999 -99.9 -99.99 -9.99
2019/10/18 05:24 PDT    4.72   4.59    1   72    2  57.0  61.7 1018.0 -9.9 -9.999 -99.9 -99.99 -9.99
2019/10/18 05:30 PDT    4.66   4.59    1  106    2  57.4  61.7 1018.0 -9.9 -9.999 -99.9 -99.99 -9.99
2019/10/18 05:36 PDT    4.61   4.53    1  153    1  57.7  61.7 1018.1 -9.9 -9.999 -99.9 -99.99 -9.99
2019/10/18 05:42 PDT    4.55   4.46    2   93    3  57.4  61.7 1018.1 -9.9 -9.999 -99.9 -99.99 -9.99
2019/10/18 05:48 PDT    4.48   4.34    3   94    4  56.3  61.7 1018.0 -9.9 -9.999 -99.9 -99.99 -9.99
2019/10/18 05:54 PDT    4.42   4.28    1   93    4  56.1  61.7 1018.0 -9.9 -9.999 -99.9 -99.99 -9.99
2019/10/18 06:00 PDT    4.35   4.21    1   84    2  56.3  61.7 1018.0 -9.9 -9.999 -99.9 -99.99 -9.99
2019/10/18 06:06 PDT    4.28   4.13    2   90    3  56.5  61.5 1018.1 -9.9 -9.999 -99.9 -99.99 -9.99
2019/10/18 06:12 PDT    4.21   4.04    3   99    4  56.1  61.5 1018.1 -9.9 -9.999 -99.9 -99.99 -9.99
2019/10/18 06:18 PDT    4.14   3.96    2   40    4  54.5  61.3 1018.2 -9.9 -9.999 -99.9 -99.99 -9.99
2019/10/18 06:24 PDT    4.07   3.87    1   58    3  54.1  61.2 1018.3 -9.9 -9.999 -99.9 -99.99 -9.99
2019/10/18 06:30 PDT    4.00   3.84    1  355    2  54.5  61.2 1018.4 -9.9 -9.999 -99.9 -99.99 -9.99
2019/10/18 06:36 PDT    3.93   3.78    1    9    2  55.0  61.0 1018.4 -9.9 -9.999 -99.9 -99.99 -9.99
2019/10/18 06:42 PDT    3.85   3.67    1  118    2  54.9  61.0 1018.5 -9.9 -9.999 -99.9 -99.99 -9.99
2019/10/18 06:48 PDT    3.78   3.60    2  105    2  54.3  61.0 1018.5 -9.9 -9.999 -99.9 -99.99 -9.99
2019/10/18 06:54 PDT    3.71   3.54    1   83    2  54.5  61.0 1018.5 -9.9 -9.999 -99.9 -99.99 -9.99
2019/10/18 07:00 PDT    3.65   3.49    1   91    2  54.9  61.0 1018.5 -9.9 -9.999 -99.9 -99.99 -9.99
2019/10/18 07:06 PDT    3.58   3.43    2   98    2  54.7  61.0 1018.6 -9.9 -9.999 -99.9 -99.99 -9.99
2019/10/18 07:12 PDT    3.52   3.40    2  100    2  54.9  60.8 1018.6 -9.9 -9.999 -99.9 -99.99 -9.99
2019/10/18 07:18 PDT    3.45   3.31    2   97    2  55.0  60.8 1018.6 -9.9 -9.999 -99.9 -99.99 -9.99
2019/10/18 07:24 PDT    3.40   3.20    1   83    2  55.2  60.8 1018.7 -9.9 -9.999 -99.9 -99.99 -9.99
2019/10/18 07:30 PDT    3.34   3.16    0   83    2  55.2  60.8 1018.7 -9.9 -9.999 -99.9 -99.99 -9.99
2019/10/18 07:36 PDT    3.29   3.17    0   95    0  55.8  60.8 1018.7 -9.9 -9.999 -99.9 -99.99 -9.99
2019/10/18 07:42 PDT    3.23   3.09    2   65    3  55.4  60.8 1018.8 -9.9 -9.999 -99.9 -99.99 -9.99
2019/10/18 07:48 PDT    3.19   2.99    1   68    4  55.6  60.8 1018.9 -9.9 -9.999 -99.9 -99.99 -9.99
2019/10/18 07:54 PDT    3.14   2.93    1   55    2  55.9  60.8 1018.9 -9.9 -9.999 -99.9 -99.99 -9.99
2019/10/18 08:00 PDT    3.10   2.90    2  101    3  55.4  60.6 1018.9 -9.9 -9.999 -99.9 -99.99 -9.99
2019/10/18 08:06 PDT    3.07   2.82    3  109    4  54.7  60.6 1018.8 -9.9 -9.999 -99.9 -99.99 -9.99
2019/10/18 08:12 PDT    3.03   2.82    3   95    4  54.7  60.6 1019.0 -9.9 -9.999 -99.9 -99.99 -9.99
2019/10/18 08:18 PDT    3.01   2.85    3  107    4  55.2  60.6 1019.0 -9.9 -9.999 -99.9 -99.99 -9.99
2019/10/18 08:24 PDT    2.98   2.81    3  104    4  55.0  60.6 1019.1 -9.9 -9.999 -99.9 -99.99 -9.99
2019/10/18 08:30 PDT    2.96   2.72    3   98    4  55.4  60.6 1019.2 -9.9 -9.999 -99.9 -99.99 -9.99
2019/10/18 08:36 PDT    2.94   2.72    4  102    5  55.9  60.6 1019.3 -9.9 -9.999 -99.9 -99.99 -9.99
2019/10/18 08:42 PDT    2.93   2.78    4  113    5  56.3  60.6 1019.4 -9.9 -9.999 -99.9 -99.99 -9.99
2019/10/18 08:48 PDT    2.92   2.79    5  113    6  56.7  60.6 1019.5 -9.9 -9.999 -99.9 -99.99 -9.99
2019/10/18 08:54 PDT    2.91   2.78    6  109    8  56.1  60.6 1019.6 -9.9 -9.999 -99.9 -99.99 -9.99
2019/10/18 09:00 PDT    2.91   2.77    6  120    8  56.1  60.6 1019.6 -9.9 -9.999 -99.9 -99.99 -9.99
2019/10/18 09:06 PDT    2.91   2.76    6  114    7  56.1  60.6 1019.8 -9.9 -9.999 -99.9 -99.99 -9.99
2019/10/18 09:12 PDT    2.92   2.76    5  110    7  56.3  60.6 1019.7 -9.9 -9.999 -99.9 -99.99 -9.99
2019/10/18 09:18 PDT    2.93   2.76    5  108    6  56.7  60.6 1019.7 -9.9 -9.999 -99.9 -99.99 -9.99
2019/10/18 09:24 PDT    2.94   2.80    5  107    7  57.2  60.6 1019.7 -9.9 -9.999 -99.9 -99.99 -9.99
2019/10/18 09:30 PDT    2.96   2.81    5  107    7  57.0  60.6 1019.7 -9.9 -9.999 -99.9 -99.99 -9.99
2019/10/18 09:36 PDT    2.98   2.79    3  107    7  57.6  60.6 1019.8 -9.9 -9.999 -99.9 -99.99 -9.99
2019/10/18 09:42 PDT    3.01   2.80    4  110    6  57.9  60.6 1019.7 -9.9 -9.999 -99.9 -99.99 -9.99
2019/10/18 09:48 PDT    3.03   2.91    5  112    6  57.7  60.8 1019.7 -9.9 -9.999 -99.9 -99.99 -9.99
2019/10/18 09:54 PDT    3.07   2.97    4  117    6  58.3  60.8 1019.7 -9.9 -9.999 -99.9 -99.99 -9.99
2019/10/18 10:00 PDT    3.10   2.98    5  112    7  58.3  60.8 1019.7 -9.9 -9.999 -99.9 -99.99 -9.99
2019/10/18 10:06 PDT    3.14   2.99    6  117    7  58.3  60.8 1019.7 -9.9 -9.999 -99.9 -99.99 -9.99
2019/10/18 10:12 PDT    3.19   3.01    6  111    7  58.3  60.8 1019.7 -9.9 -9.999 -99.9 -99.99 -9.99
2019/10/18 10:18 PDT    3.23   3.07    5  116    7  58.6  60.8 1019.7 -9.9 -9.999 -99.9 -99.99 -9.99
2019/10/18 10:24 PDT    3.28   3.17    5  118    7  58.8  60.8 1019.7 -9.9 -9.999 -99.9 -99.99 -9.99
2019/10/18 10:30 PDT    3.34   3.24    5  128    7  59.4  60.8 1019.7 -9.9 -9.999 -99.9 -99.99 -9.99
2019/10/18 10:36 PDT    3.40   3.31    5  129    8  59.4  60.8 1019.6 -9.9 -9.999 -99.9 -99.99 -9.99
2019/10/18 10:42 PDT    3.46   3.36    6  125    8  59.0  60.8 1019.6 -9.9 -9.999 -99.9 -99.99 -9.99
2019/10/18 10:48 PDT    3.52   3.43    6  125    8  59.0  60.8 1019.7 -9.9 -9.999 -99.9 -99.99 -9.99
2019/10/18 10:54 PDT    3.59   3.51    5  118    8  59.2  60.8 1019.6 -9.9 -9.999 -99.9 -99.99 -9.99
2019/10/18 11:00 PDT    3.66   3.58    5  118    8  59.5  60.8 1019.6 -9.9 -9.999 -99.9 -99.99 -9.99
2019/10/18 11:06 PDT    3.73   3.65    5  115    7  59.4  60.8 1019.6 -9.9 -9.999 -99.9 -99.99 -9.99
2019/10/18 11:12 PDT    3.81   3.77    5  111    7  59.4  60.8 1019.6 -9.9 -9.999 -99.9 -99.99 -9.99
2019/10/18 11:18 PDT    3.89   3.85    6  111    7  59.4  60.8 1019.5 -9.9 -9.999 -99.9 -99.99 -9.99
2019/10/18 11:24 PDT    3.97   3.93    5  128    8  59.9  60.8 1019.5 -9.9 -9.999 -99.9 -99.99 -9.99
2019/10/18 11:30 PDT    4.05   4.03    5  122    7  60.1  60.8 1019.5 -9.9 -9.999 -99.9 -99.99 -9.99
2019/10/18 11:36 PDT    4.14   4.09    5  123    7  60.3  60.8 1019.5 -9.9 -9.999 -99.9 -99.99 -9.99
2019/10/18 11:42 PDT    4.23   4.18    3  123    6  60.8  60.8 1019.5 -9.9 -9.999 -99.9 -99.99 -9.99
2019/10/18 11:48 PDT    4.32   4.28    4  157    6  61.0  60.8 1019.6 -9.9 -9.999 -99.9 -99.99 -9.99
2019/10/18 11:54 PDT    4.41   4.43    4  154    5  61.2  60.8 1019.6 -9.9 -9.999 -99.9 -99.99 -9.99
2019/10/18 12:00 PDT    4.50   4.52    4  148    5  61.5  60.8 1019.5 -9.9 -9.999 -99.9 -99.99 -9.99
2019/10/18 12:06 PDT    4.60   4.57    4  219    4  61.7  60.8 1019.6 -9.9 -9.999 -99.9 -99.99 -9.99
2019/10/18 12:12 PDT    4.69   4.64    4  218    6  61.9  60.8 1019.5 -9.9 -9.999 -99.9 -99.99 -9.99
2019/10/18 12:18 PDT    4.78   4.77    8  270   10  62.6  60.8 1019.5 -9.9 -9.999 -99.9 -99.99 -9.99
2019/10/18 12:24 PDT    4.88   4.88    7  269   10  62.4  60.8 1019.4 -9.9 -9.999 -99.9 -99.99 -9.99
2019/10/18 12:30 PDT    4.97   4.98   11  260   12  62.2  60.8 1019.2 -9.9 -9.999 -99.9 -99.99 -9.99
2019/10/18 12:36 PDT    5.07   5.05    9  262   12  61.7  60.8 1019.2 -9.9 -9.999 -99.9 -99.99 -9.99
2019/10/18 12:42 PDT    5.16   5.13    9  264   12  61.9  60.8 1019.1 -9.9 -9.999 -99.9 -99.99 -9.99
2019/10/18 12:48 PDT    5.25   5.18    8  251   12  61.7  60.8 1018.9 -9.9 -9.999 -99.9 -99.99 -9.99
2019/10/18 12:54 PDT    5.34   5.29    8  251    9  61.5  60.8 1018.8 -9.9 -9.999 -99.9 -99.99 -9.99
2019/10/18 13:00 PDT    5.43   5.39    9  243   11  61.3  60.8 1018.8 -9.9 -9.999 -99.9 -99.99 -9.99
2019/10/18 13:06 PDT    5.51   5.44    9  239   11  61.3  60.8 1018.8 -9.9 -9.999 -99.9 -99.99 -9.99
2019/10/18 13:12 PDT    5.59   5.51   10  234   11  61.2  60.8 1018.8 -9.9 -9.999 -99.9 -99.99 -9.99
2019/10/18 13:18 PDT    5.67   5.59    8  247   11  61.2  60.8 1018.9 -9.9 -9.999 -99.9 -99.99 -9.99
2019/10/18 13:24 PDT    5.75   5.69   10  247   11  61.2  60.8 1018.9 -9.9 -9.999 -99.9 -99.99 -9.99
2019/10/18 13:30 PDT    5.82   5.76    9  243   11  61.2  61.0 1018.8 -9.9 -9.999 -99.9 -99.99 -9.99
2019/10/18 13:36 PDT    5.89   5.83   10  248   11  61.2  61.0 1018.7 -9.9 -9.999 -99.9 -99.99 -9.99
2019/10/18 13:42 PDT    5.96   5.87    9  254   12  61.2  61.0 1018.7 -9.9 -9.999 -99.9 -99.99 -9.99
2019/10/18 13:48 PDT    6.02   5.94   10  251   12  60.8  61.0 1018.8 -9.9 -9.999 -99.9 -99.99 -9.99
2019/10/18 13:54 PDT    6.08   6.04   10  256   12  61.0  61.0 1018.8 -9.9 -9.999 -99.9 -99.99 -9.99
2019/10/18 14:00 PDT    6.13   6.10    8  267   11  61.9  61.0 1018.7 -9.9 -9.999 -99.9 -99.99 -9.99
2019/10/18 14:06 PDT    6.18   6.10    9  264   11  62.1  61.0 1018.7 -9.9 -9.999 -99.9 -99.99 -9.99
2019/10/18 14:12 PDT    6.22   6.11   10  260   13  61.9  61.0 1018.6 -9.9 -9.999 -99.9 -99.99 -9.99
2019/10/18 14:18 PDT    6.26   6.17   10  261   12  61.7  61.0 1018.5 -9.9 -9.999 -99.9 -99.99 -9.99
2019/10/18 14:24 PDT    6.29   6.16    8  267   14  61.3  61.0 1018.5 -9.9 -9.999 -99.9 -99.99 -9.99
2019/10/18 14:30 PDT    6.32   6.20    9  272   12  61.0  61.0 1018.5 -9.9 -9.999 -99.9 -99.99 -9.99
2019/10/18 14:36 PDT    6.34   6.26   10  267   13  60.8  61.0 1018.6 -9.9 -9.999 -99.9 -99.99 -9.99
2019/10/18 14:42 PDT    6.36   6.28   10  266   14  60.6  61.2 1018.5 -9.9 -9.999 -99.9 -99.99 -9.99
2019/10/18 14:48 PDT    6.37   6.30   10  263   13  61.0  61.2 1018.5 -9.9 -9.999 -99.9 -99.99 -9.99
2019/10/18 14:54 PDT    6.38   6.30   10  262   15  60.8  61.3 1018.4 -9.9 -9.999 -99.9 -99.99 -9.99
2019/10/18 15:00 PDT    6.38   6.33   12  267   15  61.2  61.3 1018.4 -9.9 -9.999 -99.9 -99.99 -9.99
2019/10/18 15:06 PDT    6.37   6.27   12  273   15  61.5  61.3 1018.3 -9.9 -9.999 -99.9 -99.99 -9.99
2019/10/18 15:12 PDT    6.36   6.28   11  275   14  61.5  61.7 1018.3 -9.9 -9.999 -99.9 -99.99 -9.99
2019/10/18 15:18 PDT    6.35   6.27   12  274   16  61.5  61.7 1018.4 -9.9 -9.999 -99.9 -99.99 -9.99
2019/10/18 15:24 PDT    6.32   6.27   10  271   15  61.5  61.7 1018.4 -9.9 -9.999 -99.9 -99.99 -9.99
2019/10/18 15:30 PDT    6.30   6.21   11  272   14  61.5  61.7 1018.4 -9.9 -9.999 -99.9 -99.99 -9.99
2019/10/18 15:36 PDT    6.26   6.18   10  271   16  61.7  61.7 1018.4 -9.9 -9.999 -99.9 -99.99 -9.99
2019/10/18 15:42 PDT    6.22   6.09   12  276   16  61.7  61.9 1018.4 -9.9 -9.999 -99.9 -99.99 -9.99
2019/10/18 15:48 PDT    6.18   6.05   12  279   16  61.9  61.9 1018.3 -9.9 -9.999 -99.9 -99.99 -9.99
2019/10/18 15:54 PDT    6.13   5.99   13  279   16  61.9  61.9 1018.4 -9.9 -9.999 -99.9 -99.99 -9.99
2019/10/18 16:00 PDT    6.07   5.93   12  279   17  61.9  61.9 1018.3 -9.9 -9.999 -99.9 -99.99 -9.99
2019/10/18 16:06 PDT    6.01   5.83   11  279   15  61.9  61.9 1018.3 -9.9 -9.999 -99.9 -99.99 -9.99
2019/10/18 16:12 PDT    5.94   5.71   12  278   16  61.7  61.9 1018.4 -9.9 -9.999 -99.9 -99.99 -9.99
2019/10/18 16:18 PDT    5.87   5.60   12  278   15  61.5  61.9 1018.5 -9.9 -9.999 -99.9 -99.99 -9.99
2019/10/18 16:24 PDT    5.79   5.54   12  280   15  61.5  61.9 1018.4 -9.9 -9.999 -99.9 -99.99 -9.99
2019/10/18 16:30 PDT    5.71   5.45   10  280   14  61.7  61.9 1018.3 -9.9 -9.999 -99.9 -99.99 -9.99
2019/10/18 16:36 PDT    5.62   5.31   10  280   17  61.5  61.9 1018.3 -9.9 -9.999 -99.9 -99.99 -9.99
2019/10/18 16:42 PDT    5.52   5.20   11  276   15  61.5  61.9 1018.3 -9.9 -9.999 -99.9 -99.99 -9.99
2019/10/18 16:48 PDT    5.42   5.11   11  277   16  61.5  61.9 1018.4 -9.9 -9.999 -99.9 -99.99 -9.99
2019/10/18 16:54 PDT    5.32   4.98   10  275   15  61.5  61.9 1018.2 -9.9 -9.999 -99.9 -99.99 -9.99
2019/10/18 17:00 PDT    5.21   4.84    9  274   13  61.7  61.9 1018.1 -9.9 -9.999 -99.9 -99.99 -9.99
2019/10/18 17:06 PDT    5.09   4.74    9  272   13  61.5  61.9 1018.0 -9.9 -9.999 -99.9 -99.99 -9.99
2019/10/18 17:12 PDT    4.97   4.65   10  274   13  61.3  61.9 1018.1 -9.9 -9.999 -99.9 -99.99 -9.99
2019/10/18 17:18 PDT    4.85   4.53   11  276   15  61.0  61.9 1018.0 -9.9 -9.999 -99.9 -99.99 -9.99
2019/10/18 17:24 PDT    4.72   4.39    9  273   14  61.0  61.9 1017.9 -9.9 -9.999 -99.9 -99.99 -9.99
2019/10/18 17:30 PDT    4.59   4.26   10  272   14  61.0  61.9 1017.8 -9.9 -9.999 -99.9 -99.99 -9.99
2019/10/18 17:36 PDT    4.45   4.10   10  273   13  61.0  61.9 1018.0 -9.9 -9.999 -99.9 -99.99 -9.99
2019/10/18 17:42 PDT    4.32   3.97   10  273   14  60.6  61.9 1018.1 -9.9 -9.999 -99.9 -99.99 -9.99
2019/10/18 17:48 PDT    4.17   3.83    9  276   13  60.4  61.9 1018.0 -9.9 -9.999 -99.9 -99.99 -9.99
2019/10/18 17:54 PDT    4.03   3.69    9  277   12  60.6  61.9 1018.0 -9.9 -9.999 -99.9 -99.99 -9.99
2019/10/18 18:00 PDT    3.88   3.51    8  281   12  60.6  61.9 1018.0 -9.9 -9.999 -99.9 -99.99 -9.99
2019/10/18 18:06 PDT    3.74   3.37   10  281   14  60.3  61.9 1018.0 -9.9 -9.999 -99.9 -99.99 -9.99
2019/10/18 18:12 PDT    3.59   3.22   11  280   15  59.9  61.9 1018.0 -9.9 -9.999 -99.9 -99.99 -9.99
2019/10/18 18:18 PDT    3.44   3.08   11  281   16  59.9  61.9 1018.1 -9.9 -9.999 -99.9 -99.99 -9.99
2019/10/18 18:24 PDT    3.28   2.94   11  280   15  59.7  61.9 1018.0 -9.9 -9.999 -99.9 -99.99 -9.99
2019/10/18 18:30 PDT    3.13   2.83   11  278   16  59.5  61.9 1018.0 -9.9 -9.999 -99.9 -99.99 -9.99
2019/10/18 18:36 PDT    2.98   2.67   11  280   15  59.4  61.9 1018.0 -9.9 -9.999 -99.9 -99.99 -9.99
2019/10/18 18:42 PDT    2.83   2.50   11  278   14  59.0  61.9 1017.9 -9.9 -9.999 -99.9 -99.99 -9.99
2019/10/18 18:48 PDT    2.68   2.37   11  280   14  59.0  62.1 1017.9 -9.9 -9.999 -99.9 -99.99 -9.99
2019/10/18 18:54 PDT    2.54   2.28   10  280   14  58.8  62.1 1017.8 -9.9 -9.999 -99.9 -99.99 -9.99
2019/10/18 19:00 PDT    2.39   2.14   10  281   14  59.0  62.1 1017.9 -9.9 -9.999 -99.9 -99.99 -9.99
2019/10/18 19:06 PDT    2.25   2.02   10  279   12  59.0  61.9 1018.0 -9.9 -9.999 -99.9 -99.99 -9.99
2019/10/18 19:12 PDT    2.11   1.90   10  281   12  58.8  61.9 1018.0 -9.9 -9.999 -99.9 -99.99 -9.99
2019/10/18 19:18 PDT    1.97   1.78    9  280   12  58.8  61.9 1018.0 -9.9 -9.999 -99.9 -99.99 -9.99
2019/10/18 19:24 PDT    1.84   1.69    8  275   12  58.8  61.9 1018.1 -9.9 -9.999 -99.9 -99.99 -9.99
2019/10/18 19:30 PDT    1.71   1.59    7  272   11  58.6  61.9 1018.1 -9.9 -9.999 -99.9 -99.99 -9.99
2019/10/18 19:36 PDT    1.59   1.51    7  273   11  58.5  61.9 1018.1 -9.9 -9.999 -99.9 -99.99 -9.99
2019/10/18 19:42 PDT    1.47   1.40    7  275   10  58.5  61.9 1018.1 -9.9 -9.999 -99.9 -99.99 -9.99
2019/10/18 19:48 PDT    1.35   1.29    7  273   10  58.3  61.9 1018.1 -9.9 -9.999 -99.9 -99.99 -9.99
2019/10/18 19:54 PDT    1.24   1.21    7  275    9  58.3  61.9 1018.1 -9.9 -9.999 -99.9 -99.99 -9.99
2019/10/18 20:00 PDT    1.14   1.12    7  274   10  58.3  61.9 1018.2 -9.9 -9.999 -99.9 -99.99 -9.99
2019/10/18 20:06 PDT    1.04   1.00    7  270    9  58.6  61.9 1018.2 -9.9 -9.999 -99.9 -99.99 -9.99
2019/10/18 20:12 PDT    0.95   0.94    7  278    9  58.1  61.9 1018.3 -9.9 -9.999 -99.9 -99.99 -9.99
2019/10/18 20:18 PDT    0.86   0.84    8  281   11  58.1  61.9 1018.4 -9.9 -9.999 -99.9 -99.99 -9.99
2019/10/18 20:24 PDT    0.77   0.71    7  280   10  58.1  61.9 1018.5 -9.9 -9.999 -99.9 -99.99 -9.99
2019/10/18 20:30 PDT    0.70   0.62    7  281   10  58.1  61.9 1018.5 -9.9 -9.999 -99.9 -99.99 -9.99
2019/10/18 20:36 PDT    0.63   0.60    6  283   10  58.1  61.9 1018.6 -9.9 -9.999 -99.9 -99.99 -9.99
2019/10/18 20:42 PDT    0.56   0.54    6  287    9  58.1  61.9 1018.6 -9.9 -9.999 -99.9 -99.99 -9.99
2019/10/18 20:48 PDT    0.50   0.45    6  281    9  58.1  61.9 1018.5 -9.9 -9.999 -99.9 -99.99 -9.99
2019/10/18 20:54 PDT    0.45   0.39    5  289    7  58.1  61.7 1018.4 -9.9 -9.999 -99.9 -99.99 -9.99
2019/10/18 21:00 PDT    0.40   0.33    5  286    7  58.1  61.7 1018.5 -9.9 -9.999 -99.9 -99.99 -9.99
2019/10/18 21:06 PDT    0.36   0.27    6  278    8  57.9  61.9 1018.4 -9.9 -9.999 -99.9 -99.99 -9.99
2019/10/18 21:12 PDT    0.33   0.22    5  279    7  57.9  61.9 1018.5 -9.9 -9.999 -99.9 -99.99 -9.99
2019/10/18 21:18 PDT    0.30   0.19    5  282    7  57.7  61.9 1018.6 -9.9 -9.999 -99.9 -99.99 -9.99
2019/10/18 21:24 PDT    0.27   0.14    4  281    7  57.9  61.9 1018.6 -9.9 -9.999 -99.9 -99.99 -9.99
2019/10/18 21:30 PDT    0.25   0.10    3  288    5  58.1  61.9 1018.7 -9.9 -9.999 -99.9 -99.99 -9.99
2019/10/18 21:36 PDT    0.24   0.09    3  284    4  57.9  61.7 1018.7 -9.9 -9.999 -99.9 -99.99 -9.99
2019/10/18 21:42 PDT    0.23   0.08    1  334    3  57.9  61.7 1018.7 -9.9 -9.999 -99.9 -99.99 -9.99
2019/10/18 21:48 PDT    0.22   0.07    1  304    2  57.9  61.7 1018.7 -9.9 -9.999 -99.9 -99.99 -9.99
2019/10/18 21:54 PDT    0.22   0.06    1  315    2  57.9  61.7 1018.8 -9.9 -9.999 -99.9 -99.99 -9.99
2019/10/18 22:00 PDT    0.23   0.04    1  299    1  57.9  61.7 1018.8 -9.9 -9.999 -99.9 -99.99 -9.99
2019/10/18 22:06 PDT    0.24 -99.99 -999 -999 -999 -99.9 -99.9 -999.9 -9.9 -9.999 -99.9 -99.99 -9.99
2019/10/18 22:12 PDT    0.26 -99.99 -999 -999 -999 -99.9 -99.9 -999.9 -9.9 -9.999 -99.9 -99.99 -9.99
2019/10/18 22:18 PDT    0.27 -99.99 -999 -999 -999 -99.9 -99.9 -999.9 -9.9 -9.999 -99.9 -99.99 -9.99